Have a Safe July 4th! 

Flight Track Log - Related Links

Times and Time Zones

All times are in EDT time to prevent confusion due to time zone crossing. See the UAL139 flight status page for this flight to view local times or setup timezone preferences in your user account.

Time Position Orientation Groundspeed Altitude Reporting Facility
EDT Latitude Longitude Course Direction KTS MPH feet Rate Location/Type
Wed 02:28:22 PM 39.8953 -104.7019 333° Northwest 186 214 6,300  Level FlightAware ADS-B (EGNT / NCL)
Wed 02:28:32 PM 39.9032 -104.7081 329° Northwest 193 222 6,600 1,200 Climbing FlightAware ADS-B (EGNT / NCL)
Wed 02:28:42 PM 39.9064 -104.7119 318° Northwest 208 239 6,700 1,345 Climbing FlightAware ADS-B (EGNT / NCL)
Wed 02:29:30 PM 39.9220 -104.7850 286° West 267 307 7,900 1,765 Climbing FlightAware ADS-B
Wed 02:30:07 PM 39.9320 -104.8440 282° West 283 326 9,200 2,045 Climbing FlightAware ADS-B
Wed 02:30:58 PM 39.9441 -104.9339 280° West 319 367 10,900 2,176 Climbing FlightAware ADS-B (EGNT / NCL)
Wed 02:31:38 PM 39.9493 -105.0129 275° West 334 384 12,500 2,571 Climbing FlightAware ADS-B (EGNT / NCL)
Wed 02:32:08 PM 39.9556 -105.0690 278° West 342 394 13,900 2,829 Climbing FlightAware ADS-B (EGNT / NCL)
Wed 02:32:48 PM 39.9653 -105.1520 279° West 347 399 15,800 2,700 Climbing FlightAware ADS-B (EGNT / NCL)
Wed 02:33:28 PM 39.9753 -105.2379 279° West 355 409 17,500 2,370 Climbing FlightAware ADS-B (EGNT / NCL)
Wed 02:34:09 PM 39.9827 -105.3067 278° West 364 419 19,000 2,197 Climbing FlightAware ADS-B (EGNT / NCL)
Wed 02:34:39 PM 39.9832 -105.3905 271° West 373 429 20,100 2,197 Climbing FlightAware ADS-B (EGNT / NCL)
Wed 02:35:20 PM 39.9800 -105.4870 268° West 380 437 21,600 1,859 Climbing FlightAware ADS-B
Wed 02:37:01 PM 39.9734 -105.7258 268° West 410 472 24,500 1,714 Climbing FlightAware ADS-B (EGNT / NCL)
Wed 02:37:40 PM 39.9719 -105.8190 269° West 419 482 25,600 1,606 Climbing FlightAware ADS-B (EGNT / NCL)
Wed 02:38:12 PM 39.9738 -105.9046 272° West 425 489 26,400 1,571 Climbing FlightAware ADS-B (EGNT / NCL)
Wed 02:39:04 PM 39.9813 -106.0378 274° West 434 499 27,800 1,514 Climbing FlightAware ADS-B (EGNT / NCL)
Wed 02:40:03 PM 39.9896 -106.1932 274° West 441 507 29,200 1,348 Climbing FlightAware ADS-B (EHAM / AMS)
Wed 02:40:33 PM 39.9925 -106.2471 274° West 441 507 29,800 1,304 Climbing FlightAware ADS-B (EHAM / AMS)
Wed 02:41:12 PM 39.9963 -106.3204 274° West 455 524 30,700 1,268 Climbing FlightAware ADS-B (EGNT / NCL)
Wed 02:41:44 PM 40.0162 -106.4636 280° West 457 526 31,300 1,083 Climbing FlightAware ADS-B (EHAM / AMS)
Wed 02:42:24 PM 40.0610 -106.5570 302° West 461 531 32,000 1,250 Climbing FlightAware ADS-B
Wed 02:42:56 PM 39.9963 -106.3204 110° East 459 528 32,800 1,143 Climbing FlightAware ADS-B (EGNT / NCL)
Wed 02:43:27 PM 40.1330 -106.7000 295° West 467 537 33,200 952 Climbing FlightAware ADS-B
Wed 02:43:59 PM 40.1740 -106.7800 304° West 471 542 33,800 1,165 Climbing FlightAware ADS-B
Wed 02:45:10 PM 40.1424 -106.7175 123° Southeast 476 548 35,200 1,000 Climbing FlightAware ADS-B (EGNT / NCL)
Wed 02:46:35 PM 40.3620 -107.1550 303° West 476 548 36,400 957 Climbing FlightAware ADS-B
Wed 02:47:28 PM 40.4200 -107.2712 303° West 470 541 37,400 1,084 Climbing FlightAware ADS-B
Wed 02:47:58 PM 40.4617 -107.3551 303° West 469 540 37,900 514 Climbing FlightAware ADS-B
Wed 02:48:38 PM 40.5077 -107.4482 303° West 469 540 38,000 86 Climbing FlightAware ADS-B
Wed 02:49:08 PM 40.5429 -107.5198 303° West 469 540 38,000  Level FlightAware ADS-B
Wed 02:49:38 PM 40.5792 -107.5934 303° West 469 540 38,000  Level FlightAware ADS-B
Wed 02:50:08 PM 40.6142 -107.6646 303° West 469 540 38,000  Level FlightAware ADS-B
Wed 02:50:38 PM 40.6498 -107.7372 303° West 468 539 38,000  Level FlightAware ADS-B
Wed 02:51:08 PM 40.6844 -107.8080 303° West 468 539 38,000  Level FlightAware ADS-B
Wed 02:51:38 PM 40.7160 -107.8726 303° West 469 540 38,000  Level FlightAware ADS-B
Wed 02:52:18 PM 40.7636 -107.9706 303° West 470 541 38,000  Level FlightAware ADS-B
Wed 02:52:48 PM 40.8013 -108.0481 303° West 469 540 38,000  Level FlightAware ADS-B
Wed 02:53:19 PM 40.8371 -108.1223 303° West 469 540 38,000  Level FlightAware ADS-B
Wed 02:53:57 PM 40.8820 -108.2150 303° West 470 541 38,000  Level FlightAware ADS-B
Wed 02:54:53 PM 40.9470 -108.3510 302° West 471 542 38,000  Level FlightAware ADS-B
Wed 02:55:54 PM 41.0180 -108.4980 303° West 470 541 38,000  Level FlightAware ADS-B
Wed 02:56:26 PM 41.0550 -108.5760 302° West 471 542 38,000  Level FlightAware ADS-B
Wed 02:56:55 PM 41.0890 -108.6480 302° West 471 542 38,000  Level FlightAware ADS-B
Wed 02:57:27 PM 41.1260 -108.7260 302° West 472 543 38,000  Level FlightAware ADS-B
Wed 02:58:01 PM 41.1650 -108.8080 302° West 471 542 38,000  Level FlightAware ADS-B
Wed 02:58:37 PM 41.2070 -108.8970 302° West 472 543 38,000  Level FlightAware ADS-B
Wed 02:59:21 PM 41.2570 -109.0030 302° West 473 544 38,000  Level FlightAware ADS-B
Wed 02:59:57 PM 41.2990 -109.0920 302° West 474 545 38,000  Level FlightAware ADS-B
Wed 03:00:26 PM 41.2876 -109.0686 123° Southeast 475 547 38,000  Level FlightAware ADS-B (KGUC)
Wed 03:01:01 PM 41.3740 -109.2530 302° West 475 547 38,000  Level FlightAware ADS-B
Wed 03:01:36 PM 41.4140 -109.3390 302° West 474 545 38,000  Level FlightAware ADS-B
Wed 03:02:09 PM 41.4520 -109.4210 302° West 475 547 38,000  Level FlightAware ADS-B
Wed 03:02:49 PM 41.4990 -109.5220 302° West 475 547 38,000  Level FlightAware ADS-B
Wed 03:03:34 PM 41.5410 -109.6170 301° West 475 547 38,000  Level FlightAware ADS-B
Wed 03:04:10 PM 41.5760 -109.6940 301° West 475 547 38,000  Level FlightAware ADS-B
Wed 03:04:58 PM 41.6220 -109.7970 301° West 475 547 38,000  Level FlightAware ADS-B
Wed 03:05:56 PM 41.7080 -109.9800 302° West 477 549 38,000  Level FlightAware ADS-B
Wed 03:06:31 PM 41.7420 -110.0550 301° West 477 549 38,000  Level FlightAware ADS-B
Wed 03:07:08 PM 41.7770 -110.1350 300° West 477 549 38,000  Level FlightAware ADS-B
Wed 03:07:44 PM 41.8120 -110.2120 301° West 477 549 38,000  Level FlightAware ADS-B
Wed 03:08:20 PM 41.8470 -110.2900 301° West 477 549 38,000  Level FlightAware ADS-B
Wed 03:08:44 PM 41.8700 -110.3420 301° West 477 549 38,000  Level FlightAware ADS-B
Wed 03:09:57 PM 41.9410 -110.5000 301° West 477 549 38,000  Level FlightAware ADS-B
Wed 03:10:31 PM 41.9730 -110.5730 301° West 477 549 38,000  Level FlightAware ADS-B
Wed 03:10:58 PM 42.0000 -110.6320 302° West 477 549 38,000  Level FlightAware ADS-B
Wed 03:12:12 PM 42.1320 -110.9260 301° West 481 554 38,000  Level FlightAware ADS-B
Wed 03:12:57 PM 42.1918 -111.0630 301° West 38,000  Level FlightAware ADS-B
Wed 03:13:06 PM 42.2020 -111.0860 301° West 481 554 38,000  Level FlightAware ADS-B
Wed 03:13:36 PM 42.2359 -111.1630 301° West 481 554 38,000  Level FlightAware ADS-B
Wed 03:14:17 PM 42.2823 -111.2700 300° West 481 554 38,000  Level FlightAware ADS-B
Wed 03:14:54 PM 42.3239 -111.3650 301° West 481 554 38,000  Level FlightAware ADS-B
Wed 03:15:41 PM 42.3773 -111.4890 300° West 482 555 38,000  Level FlightAware ADS-B
Wed 03:16:14 PM 42.4141 -111.5740 300° West 483 556 38,000  Level FlightAware ADS-B
Wed 03:16:52 PM 42.4563 -111.6720 300° West 483 556 38,000  Level FlightAware ADS-B
Wed 03:17:24 PM 42.4924 -111.7560 300° West 483 556 38,000  Level FlightAware ADS-B
Wed 03:17:54 PM 42.5261 -111.8350 300° West 483 556 38,000  Level FlightAware ADS-B
Wed 03:18:24 PM 42.5599 -111.9140 300° West 484 557 38,000  Level FlightAware ADS-B
Wed 03:19:00 PM 42.5994 -112.0070 300° West 484 557 38,000  Level FlightAware ADS-B
Wed 03:20:24 PM 42.6936 -112.2300 300° West 484 557 38,000  Level FlightAware ADS-B
Wed 03:21:36 PM 42.7720 -112.4160 300° West 485 558 38,000  Level FlightAware ADS-B
Wed 03:22:01 PM 42.7990 -112.4810 300° West 485 558 38,000  Level FlightAware ADS-B
Wed 03:23:16 PM 42.8851 -112.6810 300° West 485 558 38,000  Level FlightAware ADS-B
Wed 03:23:46 PM 42.9220 -112.7550 304° West 485 558 38,000  Level FlightAware ADS-B
Wed 03:24:21 PM 42.9640 -112.8390 304° West 485 558 38,000  Level FlightAware ADS-B
Wed 03:24:51 PM 43.0040 -112.9200 304° West 486 559 38,000  Level FlightAware ADS-B
Wed 03:25:35 PM 43.0598 -113.0330 304° West 486 559 38,000  Level FlightAware ADS-B
Wed 03:25:50 PM 43.0794 -113.0730 304° West 486 559 38,000  Level FlightAware ADS-B
Wed 03:26:37 PM 43.1350 -113.1870 304° West 486 559 38,000  Level FlightAware ADS-B
Wed 03:27:06 PM 43.1700 -113.2570 304° West 486 559 38,000  Level FlightAware ADS-B
Wed 03:28:01 PM 43.2410 -113.4020 304° West 482 555 38,000  Level FlightAware ADS-B
Wed 03:28:43 PM 43.2920 -113.5070 304° West 482 555 38,000  Level FlightAware ADS-B
Wed 03:29:56 PM 43.3860 -113.7010 304° West 488 562 38,000  Level FlightAware ADS-B
Wed 03:30:49 PM 43.4530 -113.8400 304° West 489 563 38,000  Level FlightAware ADS-B
Wed 03:31:21 PM 43.4928 -113.9230 303° West 489 563 38,000  Level FlightAware ADS-B
Wed 03:32:31 PM 43.5792 -114.1040 303° West 488 562 38,000  Level FlightAware ADS-B
Wed 03:33:11 PM 43.6282 -114.2070 303° West 489 563 38,000  Level FlightAware ADS-B
Wed 03:34:21 PM 43.7130 -114.3870 303° West 485 558 38,000  Level FlightAware ADS-B
Wed 03:35:21 PM 43.7860 -114.5410 303° West 484 557 38,000  Level FlightAware ADS-B
Wed 03:35:51 PM 43.8230 -114.6210 303° West 485 558 38,000  Level FlightAware ADS-B
Wed 03:36:31 PM 43.8730 -114.7270 303° West 484 557 38,000  Level FlightAware ADS-B
Wed 03:37:06 PM 43.9160 -114.8200 303° West 485 558 38,000  Level FlightAware ADS-B
Wed 03:37:49 PM 43.9690 -114.9350 303° West 489 563 38,000  Level FlightAware ADS-B
Wed 03:38:28 PM 44.0180 -115.0390 303° West 489 563 38,000  Level FlightAware ADS-B
Wed 03:39:08 PM 44.0650 -115.1430 302° West 489 563 38,000  Level FlightAware ADS-B
Wed 03:39:40 PM 44.1060 -115.2310 303° West 489 563 38,000  Level FlightAware ADS-B
Wed 03:40:22 PM 44.1560 -115.3410 302° West 490 564 38,000  Level FlightAware ADS-B
Wed 03:41:02 PM 44.2040 -115.4470 302° West 489 563 38,000  Level FlightAware ADS-B
Wed 03:41:42 PM 44.2530 -115.5530 303° West 489 563 38,000  Level FlightAware ADS-B
Wed 03:42:40 PM 44.3290 -115.7020 306° West 490 564 38,000  Level FlightAware ADS-B
Wed 03:43:16 PM 44.3770 -115.7950 306° West 489 563 38,000  Level FlightAware ADS-B
Wed 03:44:26 PM 44.4700 -115.9740 306° West 490 564 38,000  Level FlightAware ADS-B
Wed 03:45:30 PM 44.5540 -116.1390 306° West 489 563 38,000  Level FlightAware ADS-B
Wed 03:46:06 PM 44.6020 -116.2320 306° West 488 562 38,000  Level FlightAware ADS-B
Wed 03:46:38 PM 44.6430 -116.3120 306° West 488 562 38,000  Level FlightAware ADS-B
Wed 03:47:10 PM 44.6860 -116.3960 306° West 488 562 38,000  Level FlightAware ADS-B
Wed 03:47:47 PM 44.7330 -116.4900 305° West 489 563 38,000  Level FlightAware ADS-B
Wed 03:48:22 PM 44.7800 -116.5810 306° West 489 563 38,000  Level FlightAware ADS-B
Wed 03:48:52 PM 44.8190 -116.6600 305° West 489 563 38,000  Level FlightAware ADS-B
Wed 03:49:53 PM 44.8980 -116.8160 306° West 489 563 38,000  Level FlightAware ADS-B
Wed 03:51:01 PM 44.9860 -116.9930 305° West 488 562 38,000  Level FlightAware ADS-B
Wed 03:52:00 PM 45.0630 -117.1490 305° West 489 563 38,000  Level FlightAware ADS-B
Wed 03:52:32 PM 45.1040 -117.2320 305° West 489 563 38,000  Level FlightAware ADS-B
Wed 03:53:00 PM 45.1410 -117.3060 305° West 489 563 38,000  Level FlightAware ADS-B
Wed 03:53:43 PM 45.1960 -117.4180 305° West 489 563 38,000  Level FlightAware ADS-B
Wed 03:54:20 PM 45.2440 -117.5170 305° West 489 563 38,000  Level FlightAware ADS-B
Wed 03:54:56 PM 45.2900 -117.6120 305° West 489 563 38,000  Level FlightAware ADS-B
Wed 03:55:42 PM 45.3500 -117.7340 305° West 489 563 38,000  Level FlightAware ADS-B
Wed 03:56:14 PM 45.3900 -117.8170 304° West 489 563 38,000  Level FlightAware ADS-B
Wed 03:56:50 PM 45.4350 -117.9100 305° West 489 563 38,000  Level FlightAware ADS-B
Wed 03:57:19 PM 45.4720 -117.9880 304° West 490 564 38,000  Level FlightAware ADS-B
Wed 03:58:23 PM 45.5540 -118.1590 304° West 490 564 38,000  Level FlightAware ADS-B
Wed 03:58:54 PM 45.5930 -118.2410 304° West 490 564 38,000  Level FlightAware ADS-B
Wed 03:59:28 PM 45.6380 -118.3340 305° West 491 565 38,000  Level FlightAware ADS-B
Wed 04:00:07 PM 45.6860 -118.4370 304° West 491 565 38,000  Level FlightAware ADS-B
Wed 04:00:38 PM 45.7260 -118.5220 304° West 490 564 38,000  Level FlightAware ADS-B
Wed 04:01:11 PM 45.7670 -118.6080 304° West 491 565 38,000  Level FlightAware ADS-B
Wed 04:01:44 PM 45.8090 -118.6980 304° West 490 564 38,000  Level FlightAware ADS-B
Wed 04:02:10 PM 45.8430 -118.7700 304° West 490 564 38,000  Level FlightAware ADS-B
Wed 04:03:08 PM 45.9160 -118.9280 304° West 491 565 38,000  Level FlightAware ADS-B
Wed 04:04:13 PM 45.9970 -119.1040 304° West 490 564 38,000  Level FlightAware ADS-B
Wed 04:04:46 PM 46.0370 -119.1910 304° West 490 564 38,000  Level FlightAware ADS-B
Wed 04:05:32 PM 46.0950 -119.3170 304° West 490 564 38,000  Level FlightAware ADS-B
Wed 04:06:11 PM 46.1443 -119.4250 303° West 490 564 38,000  Level FlightAware ADS-B
Wed 04:06:45 PM 46.1855 -119.5160 303° West 491 565 38,000  Level FlightAware ADS-B
Wed 04:07:16 PM 46.2240 -119.6010 303° West 491 565 38,000  Level FlightAware ADS-B
Wed 04:07:52 PM 46.2690 -119.7010 303° West 490 564 38,000  Level FlightAware ADS-B
Wed 04:08:27 PM 46.3120 -119.7950 304° West 489 563 38,000  Level FlightAware ADS-B
Wed 04:09:02 PM 46.3550 -119.8920 303° West 489 563 38,000  Level FlightAware ADS-B
Wed 04:09:36 PM 46.3950 -119.9820 303° West 488 562 38,000  Level FlightAware ADS-B
Wed 04:10:09 PM 46.4360 -120.0740 303° West 487 560 38,000  Level FlightAware ADS-B
Wed 04:10:46 PM 46.4810 -120.1750 303° West 487 560 38,000  Level FlightAware ADS-B
Wed 04:11:47 PM 46.5557 -120.3450 303° West 487 560 38,000  Level FlightAware ADS-B
Wed 04:12:18 PM 46.5935 -120.4310 303° West 488 562 38,000  Level FlightAware ADS-B
Wed 04:12:48 PM 46.6301 -120.5140 303° West 488 562 38,000  Level FlightAware ADS-B
Wed 04:13:19 PM 46.6671 -120.5990 302° West 488 562 38,000  Level FlightAware ADS-B
Wed 04:13:49 PM 46.7034 -120.6820 303° West 488 562 38,000  Level FlightAware ADS-B
Wed 04:14:24 PM 46.7451 -120.7780 302° West 489 563 38,000  Level FlightAware ADS-B
Wed 04:14:54 PM 46.7813 -120.8620 302° West 488 562 38,000  Level FlightAware ADS-B
Wed 04:15:24 PM 46.8178 -120.9470 302° West 487 560 38,000  Level FlightAware ADS-B
Wed 04:15:55 PM 46.8542 -121.0310 302° West 487 560 38,000  Level FlightAware ADS-B
Wed 04:16:22 PM 46.8867 -121.1071 302° West 488 562 38,000  Level FlightAware ADS-B
Wed 04:16:26 PM 46.8910 -121.1170 302° West 489 563 38,000  Level FlightAware ADS-B
Wed 04:16:56 PM 46.9271 -121.2020 302° West 489 563 38,000  Level FlightAware ADS-B
Wed 04:17:26 PM 46.9631 -121.2860 302° West 489 563 38,000  Level FlightAware ADS-B
Wed 04:17:56 PM 46.9992 -121.3710 302° West 488 562 38,000  Level FlightAware ADS-B
Wed 04:18:26 PM 47.0352 -121.4560 302° West 490 564 38,000  Level FlightAware ADS-B
Wed 04:18:57 PM 47.0712 -121.5420 302° West 489 563 38,000  Level FlightAware ADS-B
Wed 04:19:27 PM 47.1073 -121.6270 302° West 491 565 38,000  Level FlightAware ADS-B
Wed 04:19:58 PM 47.1432 -121.7130 302° West 491 565 38,000  Level FlightAware ADS-B
Wed 04:20:28 PM 47.1792 -121.7990 302° West 489 563 38,000  Level FlightAware ADS-B
Wed 04:20:32 PM 47.1740 -121.7865 122° Southeast 489 563 38,000  Level FlightAware ADS-B
Wed 04:20:59 PM 47.2157 -121.8870 301° West 490 564 38,000  Level FlightAware ADS-B
Wed 04:21:02 PM 47.2199 -121.8969 302° West 490 564 38,000  Level FlightAware ADS-B
Wed 04:21:31 PM 47.2534 -121.9780 301° West 491 565 38,000  Level FlightAware ADS-B
Wed 04:21:32 PM 47.2506 -121.9707 119° Southeast 491 565 38,000  Level FlightAware ADS-B
Wed 04:22:01 PM 47.2890 -122.0630 302° West 490 564 38,000  Level FlightAware ADS-B
Wed 04:22:12 PM 47.3022 -122.0953 301° West 491 565 38,000  Level FlightAware ADS-B
Wed 04:22:31 PM 47.3245 -122.1490 302° West 490 564 38,000  Level FlightAware ADS-B
Wed 04:22:42 PM 47.3338 -122.1721 301° West 490 564 38,000  Level FlightAware ADS-B
Wed 04:22:57 PM 47.3553 -122.2240 301° West 490 564 38,000  Level FlightAware ADS-B
Wed 04:23:11 PM 47.3726 -122.2610 305° West 492 566 38,000  Level FlightAware ADS-B
Wed 04:23:12 PM 47.3720 -122.2604 143° Southeast 492 566 38,000  Level FlightAware ADS-B
Wed 04:23:34 PM 47.4040 -122.3210 308° West 493 567 38,000  Level FlightAware ADS-B
Wed 04:23:42 PM 47.4168 -122.3424 311° West 494 568 38,000  Level FlightAware ADS-B
Wed 04:24:06 PM 47.4547 -122.4030 313° West 494 568 38,000  Level FlightAware ADS-B
Wed 04:24:12 PM 47.4605 -122.4121 313° West 494 568 38,000  Level FlightAware ADS-B
Wed 04:24:37 PM 47.5009 -122.4780 312° West 493 567 38,000  Level FlightAware ADS-B
Wed 04:24:44 PM 47.5128 -122.4972 313° West 487 560 38,000  Level FlightAware ADS-B
Wed 04:25:09 PM 47.5505 -122.5580 313° West 493 567 38,000  Level FlightAware ADS-B
Wed 04:25:14 PM 47.5584 -122.5714 311° West 487 560 38,000  Level FlightAware ADS-B
Wed 04:25:39 PM 47.5969 -122.6340 312° West 493 567 38,000  Level FlightAware ADS-B
Wed 04:25:47 PM 47.6091 -122.6544 312° West 488 562 38,000  Level FlightAware ADS-B
Wed 04:26:10 PM 47.6430 -122.7100 312° West 493 567 38,000  Level FlightAware ADS-B
Wed 04:26:17 PM 47.6540 -122.7280 312° West 488 562 38,000  Level FlightAware ADS-B
Wed 04:26:40 PM 47.6894 -122.7860 312° West 493 567 38,000  Level FlightAware ADS-B
Wed 04:26:51 PM 47.7050 -122.8116 312° West 494 568 38,000  Level FlightAware ADS-B
Wed 04:27:11 PM 47.7371 -122.8640 312° West 494 568 38,000  Level FlightAware ADS-B
Wed 04:27:21 PM 47.7493 -122.8843 312° West 494 568 38,000  Level FlightAware ADS-B
Wed 04:27:42 PM 47.7837 -122.9410 312° West 493 567 38,000  Level FlightAware ADS-B
Wed 04:28:07 PM 47.8226 -123.0055 312° West 487 560 38,000  Level FlightAware ADS-B
Wed 04:28:12 PM 47.8296 -123.0170 312° West 492 566 38,000  Level FlightAware ADS-B
Wed 04:28:37 PM 47.8672 -123.0794 312° West 486 559 38,000  Level FlightAware ADS-B
Wed 04:28:42 PM 47.8754 -123.0930 312° West 491 565 38,000  Level FlightAware ADS-B
Wed 04:29:11 PM 47.9168 -123.1618 312° West 491 565 38,000  Level FlightAware ADS-B
Wed 04:29:13 PM 47.9213 -123.1690 313° West 491 565 38,000  Level FlightAware ADS-B
Wed 04:29:32 PM 47.9512 -123.2193 312° West 486 559 38,000  Level FlightAware ADS-B
Wed 04:29:43 PM 47.9672 -123.2460 312° West 492 566 38,000  Level FlightAware ADS-B
Wed 04:29:52 PM 47.9802 -123.2678 312° West 486 559 38,000  Level FlightAware ADS-B
Wed 04:30:02 PM 47.9962 -123.2945 312° West 486 559 38,000  Level FlightAware ADS-B
Wed 04:30:12 PM 48.0107 -123.3189 312° West 487 560 38,000  Level FlightAware ADS-B
Wed 04:30:17 PM 48.0192 -123.3330 312° West 492 566 38,000  Level FlightAware ADS-B
Wed 04:30:22 PM 48.0267 -123.3457 312° West 486 559 38,000  Level FlightAware ADS-B
Wed 04:30:32 PM 48.0418 -123.3710 312° West 487 560 38,000  Level FlightAware ADS-B
Wed 04:30:48 PM 48.0650 -123.4100 312° West 492 566 38,000  Level FlightAware ADS-B
Wed 04:31:02 PM 48.0856 -123.4445 312° West 492 566 38,000  Level FlightAware ADS-B
Wed 04:31:18 PM 48.1106 -123.4870 311° West 492 566 38,000  Level FlightAware ADS-B
Wed 04:31:39 PM 48.1425 -123.5404 312° West 492 566 38,000  Level FlightAware ADS-B
Wed 04:31:48 PM 48.1557 -123.5630 311° West 492 566 38,000  Level FlightAware ADS-B
Wed 04:32:12 PM 48.1921 -123.6244 312° West 492 566 38,000  Level FlightAware ADS-B
Wed 04:32:18 PM 48.2011 -123.6400 311° West 492 566 38,000  Level FlightAware ADS-B
Wed 04:32:42 PM 48.2372 -123.7008 312° West 492 566 38,000  Level FlightAware ADS-B
Wed 04:32:49 PM 48.2465 -123.7170 311° West 492 566 38,000  Level FlightAware ADS-B
Wed 04:33:12 PM 48.2777 -123.7699 312° West 493 567 38,000  Level FlightAware ADS-B
Wed 04:33:19 PM 48.2931 -123.7960 311° West 492 566 38,000  Level FlightAware ADS-B
Wed 04:33:42 PM 48.3270 -123.8538 311° West 492 566 38,000  Level FlightAware ADS-B
Wed 04:33:52 PM 48.3416 -123.8790 311° West 492 566 38,000  Level FlightAware ADS-B
Wed 04:34:23 PM 48.3841 -123.9518 311° West 492 566 38,000  Level FlightAware ADS-B
Wed 04:34:36 PM 48.4080 -123.9930 311° West 492 566 38,000  Level FlightAware ADS-B
Wed 04:34:58 PM 48.4405 -124.0487 311° West 490 564 38,000  Level FlightAware ADS-B
Wed 04:35:07 PM 48.4536 -124.0710 311° West 490 564 38,000  Level FlightAware ADS-B
Wed 04:35:28 PM 48.4861 -124.1272 311° West 491 565 38,000  Level FlightAware ADS-B
Wed 04:35:38 PM 48.4997 -124.1510 311° West 490 564 38,000  Level FlightAware ADS-B
Wed 04:35:59 PM 48.5309 -124.2048 311° West 490 564 38,000  Level FlightAware ADS-B
Wed 04:36:08 PM 48.5445 -124.2280 312° West 490 564 38,000  Level FlightAware ADS-B
Wed 04:36:32 PM 48.5808 -124.2914 311° West 490 564 38,000  Level FlightAware ADS-B
Wed 04:36:39 PM 48.5900 -124.3070 312° West 491 565 38,000  Level FlightAware ADS-B
Wed 04:37:02 PM 48.6246 -124.3678 311° West 491 565 38,000  Level FlightAware ADS-B
Wed 04:37:09 PM 48.6344 -124.3850 311° West 491 565 38,000  Level FlightAware ADS-B
Wed 04:37:40 PM 48.6800 -124.4640 311° West 490 564 38,000  Level FlightAware ADS-B
Wed 04:38:09 PM 48.7272 -124.5473 311° West 490 564 38,000  Level FlightAware ADS-B (FAKM / KIM)
Wed 04:38:21 PM 48.7417 -124.5730 310° West 490 564 38,000  Level FlightAware ADS-B
Wed 04:38:39 PM 48.7722 -124.6262 311° West 491 565 38,000  Level FlightAware ADS-B (FAKM / KIM)
Wed 04:38:52 PM 48.7872 -124.6530 310° West 491 565 38,000  Level FlightAware ADS-B
Wed 04:39:09 PM 48.8159 -124.7033 311° West 492 566 38,000  Level FlightAware ADS-B (FAKM / KIM)
Wed 04:39:22 PM 48.8318 -124.7310 311° West 491 565 38,000  Level FlightAware ADS-B
Wed 04:39:42 PM 48.8548 -124.7722 310° West 492 566 38,000  Level FlightAware ADS-B
Wed 04:39:54 PM 48.8775 -124.8120 311° West 491 565 38,000  Level FlightAware ADS-B
Wed 04:40:16 PM 48.9113 -124.8721 311° West 492 566 38,000  Level FlightAware ADS-B
Wed 04:40:24 PM 48.9234 -124.8940 310° West 492 566 38,000  Level FlightAware ADS-B
Wed 04:40:46 PM 48.9597 -124.9583 311° West 492 566 38,000  Level FlightAware ADS-B (FAKM / KIM)
Wed 04:40:54 PM 48.9676 -124.9720 311° West 492 566 38,000  Level FlightAware ADS-B
Wed 04:41:17 PM 49.0050 -125.0394 310° West 492 566 38,000  Level FlightAware ADS-B (FAKM / KIM)
Wed 04:41:24 PM 49.0121 -125.0520 311° West 492 566 38,000  Level FlightAware ADS-B
Wed 04:42:01 PM 49.0657 -125.1480 310° West 494 568 38,000  Level FlightAware ADS-B
Wed 04:42:30 PM 49.1082 -125.2245 310° West 495 570 38,000  Level FlightAware ADS-B
Wed 04:43:03 PM 49.1613 -125.3203 310° West 495 570 38,000  Level FlightAware ADS-B (FAKM / KIM)
Wed 04:43:35 PM 49.2084 -125.4055 310° West 495 570 38,000  Level FlightAware ADS-B (FAKM / KIM)
Wed 04:44:12 PM 49.2566 -125.4932 310° West 495 570 38,000  Level FlightAware ADS-B
Wed 04:44:42 PM 49.2948 -125.5627 310° West 495 570 38,000  Level FlightAware ADS-B
Wed 04:45:12 PM 49.3464 -125.6571 310° West 495 570 38,000  Level FlightAware ADS-B
Wed 04:45:42 PM 49.3886 -125.7344 310° West 495 570 38,000  Level FlightAware ADS-B
Wed 04:46:12 PM 49.4325 -125.8150 310° West 494 568 38,000  Level FlightAware ADS-B
Wed 04:46:42 PM 49.4756 -125.8946 310° West 494 568 38,000  Level FlightAware ADS-B
Wed 04:47:22 PM 49.5214 -125.9793 310° West 494 568 38,000 228 Level FlightAware ADS-B
Wed 04:48:01 PM 49.5881 -126.1031 310° West 496 571 38,300 514 Climbing FlightAware ADS-B
Wed 04:48:32 PM 49.6349 -126.1906 310° West 496 571 38,600 930 Climbing FlightAware ADS-B
Wed 04:49:12 PM 49.6965 -126.3060 310° West 489 563 39,400 988 Climbing FlightAware ADS-B
Wed 04:49:57 PM 49.7481 -126.4028 310° West 484 557 40,000 350 Climbing FlightAware ADS-B
Wed 04:50:55 PM 49.8420 -126.5790 310° West 481 554 40,000  Level FlightAware ADS-B
Wed 04:51:27 PM 49.8870 -126.6670 308° West 481 554 40,000  Level FlightAware ADS-B
Wed 04:52:02 PM 49.9350 -126.7580 309° West 482 555 40,000  Level FlightAware ADS-B
Wed 04:52:59 PM 50.0140 -126.9080 309° West 482 555 40,000  Level FlightAware ADS-B
Wed 04:53:14 PM 50.0350 -126.9480 309° West 482 555 40,000  Level FlightAware ADS-B
Wed 04:54:18 PM 50.1230 -127.1190 309° West 483 556 40,000  Level FlightAware ADS-B
Wed 04:55:02 PM 50.1850 -127.2400 309° West 485 558 40,000  Level FlightAware ADS-B
Wed 04:55:39 PM 50.2370 -127.3410 309° West 478 550 40,000  Level FlightAware ADS-B
Wed 04:56:19 PM 50.2920 -127.4470 309° West 486 559 40,000  Level FlightAware ADS-B
Wed 04:56:48 PM 50.3340 -127.5290 309° West 486 559 40,000  Level FlightAware ADS-B
Wed 04:57:22 PM 50.3780 -127.6170 308° West 486 559 40,000  Level FlightAware ADS-B
Wed 04:58:17 PM 50.4590 -127.7770 309° West 486 559 40,000  Level FlightAware ADS-B
Wed 04:59:27 PM 50.5530 -127.9650 308° West 486 559 40,000  Level FlightAware ADS-B
Wed 04:59:52 PM 50.5890 -128.0370 308° West 486 559 40,000  Level FlightAware ADS-B
Wed 05:00:07 PM 50.6100 -128.0790 308° West 486 559 40,000  Level FlightAware ADS-B
Wed 05:00:37 PM 50.6510 -128.1620 308° West 486 559 40,000  Level FlightAware ADS-B
Wed 05:01:49 PM 50.7420 -128.3450 308° West 485 558 40,000  Level FlightAware ADS-B
Wed 05:02:27 PM 50.7950 -128.4490 309° West 485 558 40,000  Level FlightAware ADS-B
Wed 05:02:51 PM 50.8240 -128.5060 309° West 485 558 40,000  Level FlightAware ADS-B
Wed 05:03:53 PM 50.8980 -128.6510 309° West 485 558 40,000  Level FlightAware ADS-B
Wed 05:04:57 PM 51.0360 -128.8450 319° Northwest 488 562 40,000  Level FlightAware ADS-B
Wed 05:05:35 PM 51.0870 -128.9280 314° West 488 562 40,000  Level FlightAware ADS-B
Wed 05:06:11 PM 51.1350 -129.0080 314° West 488 562 40,000  Level FlightAware ADS-B
Wed 05:07:13 PM 51.2170 -129.1440 314° West 488 562 40,000  Level FlightAware ADS-B
Wed 05:07:49 PM 51.2650 -129.2240 314° West 488 562 40,000  Level FlightAware ADS-B
Wed 05:08:25 PM 51.3130 -129.3030 314° West 488 562 40,000  Level FlightAware ADS-B
Wed 05:09:14 PM 51.3790 -129.4110 314° West 488 562 40,000  Level FlightAware ADS-B
Wed 05:10:14 PM 51.4590 -129.5440 314° West 488 562 40,000  Level FlightAware ADS-B
Wed 05:10:50 PM 51.5070 -129.6240 314° West 488 562 40,000  Level FlightAware ADS-B
Wed 05:11:39 PM 51.5720 -129.7330 314° West 488 562 40,000  Level FlightAware ADS-B
Wed 05:12:37 PM 51.6490 -129.8620 314° West 488 562 40,000  Level FlightAware ADS-B
Wed 05:13:24 PM 51.7120 -129.9660 314° West 488 562 40,000  Level FlightAware ADS-B
Wed 05:14:00 PM 51.7600 -130.0470 314° West 488 562 40,000  Level FlightAware ADS-B
Wed 05:14:49 PM 51.8250 -130.1560 314° West 488 562 40,000  Level FlightAware ADS-B
Wed 05:15:19 PM 51.9833 -130.4667 314° West 490 564 40,000  Level Anchorage Center
Wed 05:16:20 PM 52.0667 -130.6333 309° West 490 564 40,000  Level Anchorage Center
Wed 05:17:20 PM 52.1667 -130.8000 314° West 490 564 40,000  Level Anchorage Center
Wed 05:18:21 PM 52.2500 -130.9500 312° West 490 564 40,000  Level Anchorage Center
Wed 05:19:21 PM 52.3500 -131.1167 315° West 490 564 40,000  Level Anchorage Center
Wed 05:20:21 PM 52.4333 -131.2833 309° West 490 564 40,000  Level Anchorage Center
Wed 05:21:07 PM 52.5000 -131.4500 303° West 480 552 40,000  Level Vancouver Center
Wed 05:22:07 PM 52.5833 -131.6167 309° West 480 552 40,000  Level Vancouver Center
Wed 05:23:07 PM 52.6667 -131.7667 313° West 480 552 40,000  Level Vancouver Center
Wed 05:24:07 PM 52.7500 -131.9500 307° West 480 552 40,000  Level Vancouver Center
Wed 05:25:07 PM 52.8500 -132.1000 318° Northwest 480 552 40,000  Level Vancouver Center
Wed 05:26:07 PM 52.9333 -132.2833 307° West 480 552 40,000  Level Vancouver Center
Wed 05:27:07 PM 53.0167 -132.4333 313° West 490 564 40,000  Level Vancouver Center
Wed 05:28:07 PM 53.1000 -132.6333 305° West 480 552 40,000  Level Vancouver Center
Wed 05:29:07 PM 53.2000 -132.7833 318° Northwest 480 552 40,000  Level Vancouver Center
Wed 05:30:07 PM 53.2833 -132.9500 310° West 480 552 40,000  Level Vancouver Center
Wed 05:31:07 PM 53.3667 -133.1333 307° West 480 552 40,000  Level Vancouver Center
Wed 05:32:07 PM 53.4667 -133.2833 318° Northwest 470 541 40,000  Level Vancouver Center
Wed 05:33:07 PM 53.5500 -133.4833 305° West 480 552 40,000  Level Vancouver Center
Wed 05:34:07 PM 53.6167 -133.6333 307° West 480 552 40,000  Level Vancouver Center
Wed 05:35:07 PM 53.7000 -133.8000 310° West 480 552 40,000  Level Vancouver Center
Wed 05:36:07 PM 53.7833 -133.9833 308° West 470 541 40,000  Level Vancouver Center
Wed 05:37:07 PM 53.8833 -134.1500 316° Northwest 480 552 40,000  Level Vancouver Center
Wed 05:38:07 PM 53.9667 -134.3167 310° West 480 552 40,000  Level Vancouver Center
Wed 05:39:07 PM 54.0500 -134.4833 310° West 470 541 40,000  Level Vancouver Center
Wed 05:40:28 PM 54.1667 -134.6667 317° Northwest 470 541 40,000  Level Anchorage Center
Wed 05:41:28 PM 54.2500 -134.8500 308° West 470 541 40,000  Level Anchorage Center
Wed 05:42:07 PM 54.2833 -135.0000 291° West 470 541 40,000  Level Vancouver Center
Wed 05:43:07 PM 54.3667 -135.1667 311° West 470 541 40,000  Level Vancouver Center
Wed 05:44:07 PM 54.4500 -135.3667 306° West 470 541 40,000  Level Vancouver Center
Wed 05:45:07 PM 54.5500 -135.5333 316° Northwest 470 541 40,000  Level Vancouver Center
Wed 05:46:07 PM 54.6333 -135.7000 311° West 470 541 40,000  Level Vancouver Center
Wed 05:47:07 PM 54.7000 -135.8667 305° West 470 541 40,000  Level Vancouver Center
Wed 05:48:07 PM 54.7833 -136.0500 308° West 470 541 40,000  Level Vancouver Center
Wed 05:49:07 PM 54.8667 -136.2167 311° West 480 552 40,000  Level Vancouver Center
Wed 05:50:07 PM 54.9500 -136.4167 306° West 480 552 40,000  Level Vancouver Center
Wed 05:51:07 PM 55.0333 -136.5833 311° West 480 552 40,000  Level Vancouver Center
Wed 05:52:07 PM 55.1167 -136.7667 309° West 480 552 40,000  Level Vancouver Center
Wed 05:53:07 PM 55.1833 -136.9667 300° West 480 552 40,000  Level Vancouver Center
Wed 05:54:07 PM 55.2667 -137.1333 311° West 480 552 40,000  Level Vancouver Center
Wed 05:55:07 PM 55.3500 -137.3167 309° West 480 552 40,000  Level Vancouver Center
Wed 05:56:07 PM 55.4333 -137.5000 309° West 470 541 40,000  Level Vancouver Center
Wed 05:57:07 PM 55.5000 -137.7000 301° West 480 552 40,000  Level Vancouver Center
Wed 05:58:07 PM 55.6000 -137.8833 314° West 470 541 40,000  Level Vancouver Center
Wed 05:59:07 PM 55.6667 -138.0500 305° West 480 552 40,000  Level Vancouver Center
Wed 06:00:07 PM 55.7500 -138.2667 304° West 480 552 40,000  Level Vancouver Center
Wed 06:01:07 PM 55.8333 -138.4500 309° West 490 564 40,000  Level Vancouver Center
Wed 06:02:07 PM 55.9167 -138.6500 307° West 490 564 40,000  Level Vancouver Center
Wed 06:03:07 PM 56.0000 -138.8333 309° West 490 564 40,000  Level Vancouver Center
Wed 06:04:07 PM 56.0667 -139.0500 299° West 490 564 40,000  Level Vancouver Center
Wed 06:05:07 PM 56.1500 -139.2333 309° West 490 564 40,000  Level Vancouver Center
Wed 06:06:07 PM 56.2333 -139.4167 309° West 480 552 40,000  Level Vancouver Center
Wed 06:07:07 PM 56.3000 -139.6000 303° West 480 552 40,000  Level Vancouver Center
Wed 06:07:37 PM 56.3333 -139.6000 360° North 460 529 40,000  Level Anchorage Center
Wed 06:08:37 PM 56.4167 -139.8000 307° West 460 529 40,000  Level Anchorage Center
Wed 06:09:37 PM 56.4833 -139.9833 303° West 470 541 40,000  Level Anchorage Center
Wed 06:10:07 PM 56.5167 -140.2167 285° West 470 541 40,000  Level Vancouver Center
Wed 06:11:07 PM 56.5833 -140.4167 301° West 470 541 40,000  Level Vancouver Center
Wed 06:12:07 PM 56.6333 -140.6333 293° West 470 541 40,000  Level Vancouver Center
Wed 06:12:38 PM 56.6500 -140.6333 360° North 460 529 40,000  Level Anchorage Center
Wed 06:13:39 PM 56.7000 -140.8500 293° West 460 529 40,000  Level Anchorage Center
Wed 06:14:39 PM 56.7500 -141.0667 293° West 460 529 40,000  Level Anchorage Center
Wed 06:15:40 PM 56.8000 -141.2833 293° West 460 529 40,000  Level Anchorage Center
Wed 06:16:40 PM 56.8667 -141.5000 299° West 460 529 40,000  Level Anchorage Center
Wed 06:17:40 PM 56.9167 -141.7000 295° West 450 518 40,000  Level Anchorage Center
Wed 06:18:41 PM 56.9667 -141.9167 293° West 460 529 40,000  Level Anchorage Center
Wed 06:19:41 PM 57.0167 -142.1333 293° West 460 529 40,000  Level Anchorage Center
Wed 06:20:41 PM 57.0667 -142.3500 293° West 460 529 40,000  Level Anchorage Center
Wed 06:21:41 PM 57.1167 -142.5667 293° West 460 529 40,000  Level Anchorage Center
Wed 06:22:42 PM 57.1500 -142.7833 286° West 450 518 40,000  Level Anchorage Center
Wed 06:23:42 PM 57.2000 -143.0000 293° West 440 506 40,000  Level Anchorage Center
Wed 06:24:42 PM 57.2500 -143.2333 292° West 460 529 40,000  Level Anchorage Center
Wed 06:25:43 PM 57.3000 -143.4500 293° West 450 518 40,000  Level Anchorage Center
Wed 06:26:43 PM 57.3500 -143.6667 293° West 450 518 40,000  Level Anchorage Center
Wed 06:27:43 PM 57.3833 -143.8833 286° West 450 518 40,000  Level Anchorage Center
Wed 06:28:44 PM 57.4333 -144.1000 293° West 450 518 40,000  Level Anchorage Center
Wed 06:29:44 PM 57.4833 -144.3167 293° West 450 518 40,000  Level Anchorage Center
Wed 06:30:44 PM 57.5333 -144.5500 292° West 460 529 40,000  Level Anchorage Center
Wed 06:31:45 PM 57.5667 -144.7667 286° West 450 518 40,000  Level Anchorage Center
Wed 06:32:45 PM 57.6167 -144.9833 293° West 460 529 40,000  Level Anchorage Center
Wed 06:33:45 PM 57.6667 -145.2167 292° West 460 529 40,000  Level Anchorage Center
Wed 06:34:46 PM 57.7167 -145.4333 293° West 460 529 40,000  Level Anchorage Center
Wed 06:35:46 PM 57.7500 -145.6667 285° West 470 541 40,000  Level Anchorage Center
Wed 06:36:46 PM 57.8000 -145.9000 292° West 460 529 40,000  Level Anchorage Center
Wed 06:37:47 PM 57.8333 -146.1333 285° West 470 541 40,000  Level Anchorage Center
Wed 06:38:47 PM 57.8833 -146.3667 292° West 460 529 40,000  Level Anchorage Center
Wed 06:39:47 PM 57.9333 -146.6000 292° West 470 541 40,000  Level Anchorage Center
Wed 06:40:48 PM 57.9667 -146.8333 285° West 470 541 40,000  Level Anchorage Center
Wed 06:41:48 PM 58.0167 -147.0667 292° West 470 541 40,000  Level Anchorage Center
Wed 06:42:48 PM 58.0500 -147.3000 285° West 450 518 40,000  Level Anchorage Center
Wed 06:43:49 PM 58.1000 -147.5333 292° West 470 541 40,000  Level Anchorage Center
Wed 06:44:49 PM 58.1333 -147.7667 285° West 460 529 40,000  Level Anchorage Center
Wed 06:45:50 PM 58.1667 -148.0000 285° West 460 529 40,000  Level Anchorage Center
Wed 06:46:50 PM 58.2167 -148.2333 292° West 450 518 40,000  Level Anchorage Center
Wed 06:52:41 PM 58.4440 -149.6320 292° West 455 524 40,000  Level FlightAware ADS-B
Wed 06:53:38 PM 58.4770 -149.8480 286° West 456 525 40,000  Level FlightAware ADS-B
Wed 06:54:31 PM 58.5050 -150.0360 286° West 456 525 40,000  Level FlightAware ADS-B
Wed 06:55:32 PM 58.5350 -150.2370 286° West 456 525 40,000  Level FlightAware ADS-B
Wed 06:55:54 PM 58.5460 -150.3100 286° West 456 525 40,000  Level FlightAware ADS-B
Wed 06:56:57 PM 58.5770 -150.5180 286° West 456 525 40,000  Level FlightAware ADS-B
Wed 06:57:33 PM 58.5950 -150.6370 286° West 456 525 40,000  Level FlightAware ADS-B
Wed 06:58:10 PM 58.6130 -150.7590 286° West 456 525 40,000  Level FlightAware ADS-B
Wed 06:58:35 PM 58.6260 -150.8420 287° West 456 525 40,000  Level FlightAware ADS-B
Wed 06:59:35 PM 58.6550 -151.0410 286° West 456 525 40,000  Level FlightAware ADS-B
Wed 07:00:28 PM 58.6640 -151.4370 273° West 452 520 40,000  Level FlightAware ADS-B
Wed 07:01:01 PM 58.6820 -151.5920 283° West 451 519 40,000  Level FlightAware ADS-B
Wed 07:01:43 PM 58.6990 -151.7470 282° West 451 519 40,000  Level FlightAware ADS-B
Wed 07:02:26 PM 58.7160 -151.9160 281° West 451 519 40,000  Level FlightAware ADS-B
Wed 07:03:41 PM 58.7420 -152.1680 281° West 451 519 40,000  Level FlightAware ADS-B
Wed 07:04:27 PM 58.7570 -152.3220 281° West 451 519 40,000  Level FlightAware ADS-B
Wed 07:05:15 PM 58.7740 -152.4830 282° West 451 519 40,000  Level FlightAware ADS-B
Wed 07:05:52 PM 58.7860 -152.6080 281° West 451 519 40,000  Level FlightAware ADS-B
Wed 07:06:28 PM 58.7980 -152.7290 281° West 451 519 40,000  Level FlightAware ADS-B
Wed 07:07:16 PM 58.8140 -152.8900 281° West 451 519 40,000  Level FlightAware ADS-B
Wed 07:08:16 PM 58.8350 -153.0920 281° West 451 519 40,000  Level FlightAware ADS-B
Wed 07:08:40 PM 58.8430 -153.1720 281° West 451 519 40,000  Level FlightAware ADS-B
Wed 07:09:28 PM 58.8590 -153.3340 281° West 451 519 40,000  Level FlightAware ADS-B
Wed 07:09:52 PM 58.8670 -153.4150 281° West 451 519 40,000  Level FlightAware ADS-B
Wed 07:10:52 PM 58.8880 -153.6170 281° West 451 519 40,000  Level FlightAware ADS-B
Wed 07:11:40 PM 58.9040 -153.7790 281° West 451 519 40,000  Level FlightAware ADS-B
Wed 07:12:01 PM 58.9110 -153.8490 281° West 451 519 40,000  Level FlightAware ADS-B
Wed 07:12:59 PM 58.9333 -154.3667 281° West 450 518 40,000  Level Anchorage Center
Wed 07:13:59 PM 58.9667 -154.6167 285° West 460 529 40,000  Level Anchorage Center
Wed 07:14:59 PM 58.9833 -154.8500 278° West 440 506 40,000  Level Anchorage Center
Wed 07:15:59 PM 59.0000 -155.1167 277° West 450 518 40,000  Level Anchorage Center
Wed 07:16:59 PM 59.0167 -155.3667 277° West 460 529 40,000  Level Anchorage Center
Wed 07:19:00 PM 59.0667 -155.8833 281° West 450 518 40,000  Level Anchorage Center
Wed 07:20:01 PM 59.0667 -156.1000 270° West 450 518 40,000  Level Anchorage Center
Wed 07:21:01 PM 59.1000 -156.3667 284° West 440 506 40,000  Level Anchorage Center
Wed 07:22:01 PM 59.1167 -156.6000 278° West 450 518 40,000  Level Anchorage Center
Wed 07:23:01 PM 59.1333 -156.8500 278° West 450 518 40,000  Level Anchorage Center
Wed 07:24:02 PM 59.1333 -157.0500 270° West 450 518 40,000  Level Anchorage Center
Wed 07:25:02 PM 59.1500 -157.3333 277° West 450 518 40,000  Level Anchorage Center
Wed 07:26:03 PM 59.1667 -157.5833 278° West 450 518 40,000  Level Anchorage Center
Wed 07:27:03 PM 59.1833 -157.8167 278° West 450 518 40,000  Level Anchorage Center
Wed 07:28:03 PM 59.2000 -158.0667 278° West 450 518 40,000  Level Anchorage Center
Wed 07:29:04 PM 59.2167 -158.3167 278° West 450 518 40,000  Level Anchorage Center
Wed 07:30:04 PM 59.2167 -158.5667 270° West 450 518 40,000  Level Anchorage Center
Wed 07:31:04 PM 59.2333 -158.8167 278° West 450 518 40,000  Level Anchorage Center
Wed 07:32:05 PM 59.2500 -159.0500 278° West 460 529 40,000  Level Anchorage Center
Wed 07:33:05 PM 59.2667 -159.3000 278° West 450 518 40,000  Level Anchorage Center
Wed 07:34:05 PM 59.2667 -159.5667 270° West 450 518 40,000  Level Anchorage Center
Wed 07:35:06 PM 59.2833 -159.8167 278° West 450 518 40,000  Level Anchorage Center
Wed 07:36:06 PM 59.3000 -160.0667 278° West 450 518 40,000  Level Anchorage Center
Wed 07:37:06 PM 59.3000 -160.3167 270° West 450 518 40,000  Level Anchorage Center
Wed 07:38:06 PM 59.3167 -160.5667 278° West 450 518 40,000  Level Anchorage Center
Wed 07:39:07 PM 59.3167 -160.8167 270° West 460 529 40,000  Level Anchorage Center
Wed 07:40:07 PM 59.3333 -161.0667 278° West 450 518 40,000  Level Anchorage Center
Wed 07:41:07 PM 59.3333 -161.3167 270° West 460 529 40,000  Level Anchorage Center
Wed 07:42:08 PM 59.3333 -161.5667 270° West 450 518 40,000  Level Anchorage Center
Wed 07:43:08 PM 59.3500 -161.8000 278° West 450 518 40,000  Level Anchorage Center
Wed 07:44:09 PM 59.3500 -162.0500 270° West 460 529 40,000  Level Anchorage Center
Wed 07:45:09 PM 59.3667 -162.3000 278° West 460 529 40,000  Level Anchorage Center
Wed 07:46:09 PM 59.3667 -162.5500 270° West 460 529 40,000  Level Anchorage Center
Wed 07:47:10 PM 59.3667 -162.8000 270° West 460 529 40,000  Level Anchorage Center
Wed 07:48:10 PM 59.3833 -163.0667 277° West 470 541 40,000  Level Anchorage Center
Wed 07:49:10 PM 59.3833 -163.3167 270° West 460 529 40,000  Level Anchorage Center
Wed 07:50:10 PM 59.4000 -163.6167 276° West 460 529 40,000  Level Anchorage Center
Wed 07:51:11 PM 59.4167 -163.8833 277° West 470 541 40,000  Level Anchorage Center
Wed 07:52:11 PM 59.4167 -164.1333 270° West 470 541 40,000  Level Anchorage Center
Wed 07:53:11 PM 59.4333 -164.3833 278° West 470 541 40,000  Level Anchorage Center
Wed 07:54:12 PM 59.4333 -164.6500 270° West 470 541 40,000  Level Anchorage Center
Wed 07:54:56 PM 59.4500 -164.8000 282° West 470 541 40,000  Level Anchorage Center
Wed 07:55:56 PM 59.4500 -165.0667 270° West 470 541 40,000  Level Anchorage Center
Wed 07:56:56 PM 59.4667 -165.3167 278° West 470 541 40,000  Level Anchorage Center
Wed 07:57:56 PM 59.4667 -165.5833 270° West 470 541 40,000  Level Anchorage Center
Wed 07:58:56 PM 59.4833 -165.8500 277° West 470 541 40,000  Level Anchorage Center
Wed 07:59:56 PM 59.4833 -166.1000 270° West 460 529 40,000  Level Anchorage Center
Wed 08:00:56 PM 59.4833 -166.3667 270° West 480 552 40,000  Level Anchorage Center
Wed 08:01:56 PM 59.4833 -166.6500 270° West 460 529 40,000  Level Anchorage Center
Wed 08:02:57 PM 59.5000 -166.9167 277° West 470 541 40,000  Level Anchorage Center
Wed 08:03:56 PM 59.5000 -167.1667 270° West 470 541 40,000  Level Anchorage Center
Wed 08:04:57 PM 59.5000 -167.4333 270° West 460 529 40,000  Level Anchorage Center
Wed 08:05:57 PM 59.5000 -167.7000 270° West 480 552 40,000  Level Anchorage Center
Wed 08:06:57 PM 59.4833 -167.9667 263° West 480 552 40,000  Level Anchorage Center
Wed 08:07:57 PM 59.4667 -168.1833 261° West 450 518 40,000  Level Anchorage Center
Wed 08:08:57 PM 59.4667 -168.4333 270° West 460 529 40,000  Level Anchorage Center
Wed 08:09:57 PM 59.4500 -168.7000 263° West 470 541 40,000  Level Anchorage Center
Wed 08:10:57 PM 59.4333 -168.9500 263° West 480 552 40,000  Level Anchorage Center
Wed 08:11:57 PM 59.4167 -169.2167 263° West 480 552 40,000  Level Anchorage Center
Wed 08:12:57 PM 59.4000 -169.4833 263° West 480 552 40,000  Level Anchorage Center
Wed 08:13:57 PM 59.4000 -169.7333 270° West 470 541 40,000  Level Anchorage Center
Wed 08:14:58 PM 59.3667 -170.0500 258° West 480 552 40,000  Level Anchorage Center
Wed 08:15:57 PM 59.3500 -170.3167 263° West 490 564 40,000  Level Anchorage Center
Wed 08:16:57 PM 59.3333 -170.5667 263° West 480 552 40,000  Level Anchorage Center
Wed 08:17:58 PM 59.3167 -170.8333 263° West 480 552 40,000  Level Anchorage Center
Wed 08:18:58 PM 59.3000 -171.0500 262° West 480 552 40,000  Level Anchorage Center
Wed 08:19:58 PM 59.2833 -171.3000 263° West 470 541 40,000  Level Anchorage Center
Wed 08:20:58 PM 59.2667 -171.5500 263° West 470 541 40,000  Level Anchorage Center
Wed 08:21:58 PM 59.2500 -171.8167 263° West 480 552 40,000  Level Anchorage Center
Wed 08:22:58 PM 59.2333 -172.0667 263° West 470 541 40,000  Level Anchorage Center
Wed 08:23:58 PM 59.2167 -172.3333 263° West 470 541 40,000  Level Anchorage Center
Wed 08:24:58 PM 59.1833 -172.5833 256° West 470 541 40,000  Level Anchorage Center
Wed 08:25:58 PM 59.1667 -172.8500 263° West 490 564 40,000  Level Anchorage Center
Wed 08:26:58 PM 59.1500 -173.1167 263° West 480 552 40,000  Level Anchorage Center
Wed 08:27:58 PM 59.1167 -173.3667 256° West 480 552 40,000  Level Anchorage Center
Wed 08:28:58 PM 59.1000 -173.6333 263° West 480 552 40,000  Level Anchorage Center
Wed 08:29:59 PM 59.0667 -173.9000 256° West 490 564 40,000  Level Anchorage Center
Wed 08:30:58 PM 59.0500 -174.1500 263° West 480 552 40,000  Level Anchorage Center
Wed 08:31:58 PM 59.0000 -174.4000 249° West 460 529 40,000  Level Anchorage Center
Wed 08:32:58 PM 58.9500 -174.6333 248° West 480 552 40,000  Level Anchorage Center
Wed 08:33:59 PM 58.9000 -174.8833 249° West 490 564 40,000  Level Anchorage Center
Wed 08:34:59 PM 58.8333 -175.1167 241° Southwest 480 552 40,000  Level Anchorage Center
Wed 08:35:58 PM 58.7833 -175.3667 249° West 480 552 40,000  Level Anchorage Center
Wed 08:36:59 PM 58.7333 -175.6000 248° West 470 541 40,000  Level Anchorage Center
Wed 08:37:59 PM 58.6667 -175.8333 241° Southwest 490 564 40,000  Level Anchorage Center
Wed 08:38:59 PM 58.6167 -176.0667 248° West 480 552 40,000  Level Anchorage Center
Wed 08:39:59 PM 58.5667 -176.3000 248° West 480 552 40,000  Level Anchorage Center
Wed 08:40:59 PM 58.5167 -176.5500 249° West 480 552 40,000  Level Anchorage Center
Wed 08:41:59 PM 58.4500 -176.7833 241° Southwest 490 564 40,000  Level Anchorage Center
Wed 08:42:59 PM 58.3833 -177.0167 241° Southwest 490 564 40,000  Level Anchorage Center
Wed 08:44:13 PM 58.3833 -177.1000 245° Southwest 488 562 40,000  Level Anchorage Center
Wed 08:48:14 PM 58.1000 -178.2167 244° Southwest 489 563 40,000  Level Anchorage Center
Wed 08:50:00 PM 57.9741 -178.7017 243° Southwest 488 562 40,000  Level FlightAware Transoceanic
Wed 08:51:00 PM 57.9140 -178.9275 243° Southwest 488 562 40,000  Level FlightAware Transoceanic
Wed 08:52:00 PM 57.8535 -179.1525 243° Southwest 488 562 40,000  Level FlightAware Transoceanic
Wed 08:53:00 PM 57.7926 -179.3768 243° Southwest 488 562 40,000  Level FlightAware Transoceanic
Wed 08:54:00 PM 57.7365 -179.5789 243° Southwest 489 563 40,000  Level FlightAware Transoceanic
Wed 08:55:00 PM 57.6745 -179.8033 243° Southwest 489 563 40,000  Level FlightAware Transoceanic
Wed 08:56:00 PM 57.6121 179.9731 242° Southwest 489 563 40,000  Level FlightAware Transoceanic
Wed 08:57:00 PM 57.5493 179.7503 242° Southwest 489 563 40,000  Level FlightAware Transoceanic
Wed 08:57:45 PM 57.5167 179.6167 242° Southwest 491 565 40,000  Level Anchorage Center
Wed 08:58:00 PM 57.4861 179.5282 242° Southwest 489 563 40,000  Level FlightAware Transoceanic
Wed 08:59:00 PM 57.4225 179.3069 242° Southwest 489 563 40,000  Level FlightAware Transoceanic
Wed 09:00:00 PM 57.3586 179.0864 242° Southwest 489 563 40,000  Level FlightAware Transoceanic
Wed 09:01:00 PM 57.2943 178.8667 241° Southwest 489 563 40,000  Level FlightAware Transoceanic
Wed 09:02:00 PM 57.2295 178.6477 241° Southwest 489 563 40,000  Level FlightAware Transoceanic
Wed 09:03:00 PM 57.1801 178.4729 241° Southwest 491 565 40,000  Level FlightAware Transoceanic
Wed 09:04:00 PM 57.1116 178.2466 241° Southwest 491 565 40,000  Level FlightAware Transoceanic
Wed 09:05:00 PM 57.0426 178.0212 241° Southwest 491 565 40,000  Level FlightAware Transoceanic
Wed 09:06:00 PM 56.9733 177.7966 240° Southwest 491 565 40,000  Level FlightAware Transoceanic
Wed 09:07:00 PM 56.9035 177.5729 240° Southwest 491 565 40,000  Level FlightAware Transoceanic
Wed 09:07:22 PM 56.8833 177.5167 241° Southwest 492 566 40,000  Level Anchorage Center
Wed 09:08:00 PM 56.8333 177.3500 240° Southwest 491 565 40,000  Level FlightAware Transoceanic
Wed 09:08:15 PM 56.8333 177.3500 240° Southwest 488 562 40,000  Level Anchorage Center
Wed 09:09:00 PM 56.7647 177.1338 240° Southwest 491 565 40,000  Level FlightAware Transoceanic
Wed 09:10:00 PM 56.6957 176.9184 240° Southwest 491 565 40,000  Level FlightAware Transoceanic
Wed 09:11:00 PM 56.6263 176.7038 239° Southwest 491 565 40,000  Level FlightAware Transoceanic
Wed 09:12:00 PM 56.5565 176.4900 239° Southwest 491 565 40,000  Level FlightAware Transoceanic
Wed 09:13:00 PM 56.4994 176.3163 239° Southwest 492 566 40,000  Level FlightAware Transoceanic
Wed 09:14:00 PM 56.4159 176.0647 239° Southwest 488 562 40,000  Level FlightAware Transoceanic
Wed 09:15:00 PM 56.3451 175.8532 239° Southwest 488 562 40,000  Level FlightAware Transoceanic
Wed 09:16:00 PM 56.2738 175.6425 239° Southwest 488 562 40,000  Level FlightAware Transoceanic
Wed 09:16:55 PM 56.2167 175.5000 239° Southwest 490 564 40,000  Level Anchorage Center
Wed 09:17:00 PM 56.2023 175.4327 238° Southwest 488 562 40,000  Level FlightAware Transoceanic
Wed 09:18:00 PM 56.1304 175.2236 238° Southwest 488 562 40,000  Level FlightAware Transoceanic
Wed 09:18:26 PM 56.1000 175.1667 238° Southwest 530 610 40,000  Level Anchorage Center
Wed 09:19:00 PM 56.0581 175.0152 238° Southwest 488 562 40,000  Level FlightAware Transoceanic
Wed 09:19:26 PM 56.0333 174.9833 237° Southwest 510 587 40,000  Level Anchorage Center
Wed 09:20:00 PM 55.9855 174.8077 238° Southwest 488 562 40,000  Level FlightAware Transoceanic
Wed 09:20:27 PM 55.9500 174.7500 238° Southwest 490 564 40,000  Level Anchorage Center
Wed 09:21:00 PM 55.9125 174.6009 238° Southwest 488 562 40,000  Level FlightAware Transoceanic
Wed 09:21:27 PM 55.9000 174.5833 242° Southwest 490 564 40,000  Level Anchorage Center
Wed 09:22:00 PM 55.8392 174.3950 238° Southwest 488 562 40,000  Level FlightAware Transoceanic
Wed 09:22:27 PM 55.8167 174.3500 238° Southwest 490 564 40,000  Level Anchorage Center
Wed 09:23:00 PM 55.7753 174.2325 238° Southwest 490 564 40,000  Level FlightAware Transoceanic
Wed 09:23:27 PM 55.7500 174.1833 235° Southwest 480 552 40,000  Level Anchorage Center
Wed 09:24:27 PM 55.6667 173.9667 236° Southwest 480 552 40,000  Level Anchorage Center
Wed 09:25:27 PM 55.6000 173.7500 241° Southwest 490 564 40,000  Level Anchorage Center
Wed 09:26:27 PM 55.5333 173.5667 237° Southwest 500 575 40,000  Level Anchorage Center
Wed 09:27:27 PM 55.4500 173.3333 238° Southwest 490 564 40,000  Level Anchorage Center
Wed 09:28:27 PM 55.3833 173.1667 235° Southwest 480 552 40,000  Level Anchorage Center
Wed 09:29:27 PM 55.3000 172.9500 236° Southwest 490 564 40,000  Level Anchorage Center
Wed 09:30:27 PM 55.2333 172.7833 235° Southwest 480 552 40,000  Level Anchorage Center
Wed 09:31:27 PM 55.1500 172.5667 236° Southwest 480 552 40,000  Level Anchorage Center
Wed 09:32:27 PM 55.0667 172.3667 234° Southwest 480 552 40,000  Level Anchorage Center
Wed 09:33:28 PM 55.0000 172.1833 238° Southwest 490 564 40,000  Level Anchorage Center
Wed 09:34:28 PM 54.9167 171.9667 236° Southwest 490 564 40,000  Level Anchorage Center
Wed 09:35:28 PM 54.8500 171.8000 235° Southwest 480 552 40,000  Level Anchorage Center
Wed 09:36:28 PM 54.7667 171.6000 234° Southwest 480 552 40,000  Level Anchorage Center
Wed 09:37:27 PM 54.7000 171.4333 235° Southwest 480 552 40,000  Level Anchorage Center
Wed 09:38:28 PM 54.6167 171.2333 234° Southwest 490 564 40,000  Level Anchorage Center
Wed 09:39:28 PM 54.5333 171.0333 234° Southwest 490 564 40,000  Level Anchorage Center
Wed 09:40:28 PM 54.4500 170.8667 229° Southwest 490 564 40,000  Level Anchorage Center
Wed 09:41:28 PM 54.3667 170.6667 234° Southwest 480 552 40,000  Level Anchorage Center
Wed 09:42:28 PM 54.3000 170.5000 236° Southwest 480 552 40,000  Level Anchorage Center
Wed 09:43:28 PM 54.2167 170.2833 237° Southwest 490 564 40,000  Level Anchorage Center
Wed 09:44:28 PM 54.1500 170.1333 233° Southwest 480 552 40,000  Level Anchorage Center
Wed 09:46:28 PM 53.9833 169.7667 232° Southwest 490 564 40,000  Level Anchorage Center
Wed 09:47:28 PM 53.9000 169.5833 232° Southwest 480 552 40,000  Level Anchorage Center
Wed 09:48:29 PM 53.8000 169.3833 230° Southwest 500 575 40,000  Level Anchorage Center
Wed 09:49:28 PM 53.7333 169.2167 236° Southwest 500 575 40,000  Level Anchorage Center
Wed 09:50:29 PM 53.6667 169.0000 243° Southwest 480 552 40,000  Level Anchorage Center
Wed 09:51:29 PM 53.6000 168.8333 236° Southwest 490 564 40,000  Level Anchorage Center
Wed 09:52:29 PM 53.5333 168.6167 243° Southwest 480 552 40,000  Level Anchorage Center
Wed 09:53:29 PM 53.4667 168.4500 236° Southwest 490 564 40,000  Level Anchorage Center
Wed 09:54:35 PM 53.4167 168.2333 239° Southwest 479 551 40,000  Level Anchorage Center
Wed 09:55:19 PM 53.3500 168.0833 240° Southwest 483 556 40,000  Level Anchorage Center
Wed 10:01:00 PM 52.9407 166.9427 239° Southwest 483 556 40,000  Level FlightAware Transoceanic
Wed 10:02:00 PM 52.8714 166.7547 239° Southwest 483 556 40,000  Level FlightAware Transoceanic
Wed 10:03:00 PM 52.8019 166.5674 238° Southwest 483 556 40,000  Level FlightAware Transoceanic
Wed 10:04:00 PM 52.7320 166.3806 238° Southwest 483 556 40,000  Level FlightAware Transoceanic
Wed 10:05:00 PM 52.6619 166.1944 238° Southwest 483 556 40,000  Level FlightAware Transoceanic
Wed 10:05:02 PM 52.7000 166.2667 238° Southwest 477 549 40,000  Level Anchorage Center
Wed 10:06:00 PM 52.5914 166.0088 238° Southwest 483 556 40,000  Level FlightAware Transoceanic
Wed 10:07:00 PM 52.5207 165.8238 238° Southwest 483 556 40,000  Level FlightAware Transoceanic
Wed 10:08:00 PM 52.4497 165.6394 238° Southwest 483 556 40,000  Level FlightAware Transoceanic
Wed 10:09:00 PM 52.3784 165.4556 237° Southwest 483 556 40,000  Level FlightAware Transoceanic
Wed 10:10:00 PM 52.3068 165.2724 237° Southwest 483 556 40,000  Level FlightAware Transoceanic
Wed 10:11:00 PM 52.2571 165.1301 237° Southwest 477 549 40,000  Level FlightAware Transoceanic
Wed 10:12:00 PM 52.1822 164.9429 237° Southwest 477 549 40,000  Level FlightAware Transoceanic
Wed 10:13:00 PM 52.1071 164.7563 237° Southwest 477 549 40,000  Level FlightAware Transoceanic
Wed 10:14:00 PM 52.0316 164.5704 236° Southwest 477 549 40,000  Level FlightAware Transoceanic
Wed 10:14:34 PM 52.0167 164.5167 236° Southwest 478 550 40,000  Level Anchorage Center
Wed 10:15:00 PM 51.9559 164.3850 236° Southwest 477 549 40,000  Level FlightAware Transoceanic
Wed 10:16:00 PM 51.8798 164.2003 236° Southwest 477 549 40,000  Level FlightAware Transoceanic
Wed 10:17:00 PM 51.8035 164.0163 236° Southwest 477 549 40,000  Level FlightAware Transoceanic
Wed 10:18:00 PM 51.7269 163.8328 236° Southwest 477 549 40,000  Level FlightAware Transoceanic
Wed 10:19:00 PM 51.6500 163.6500 236° Southwest 477 549 40,000  Level FlightAware Transoceanic
Wed 10:19:41 PM 51.6500 163.6500 236° Southwest 474 545 40,000  Level Anchorage Center
Wed 10:20:00 PM 51.5786 163.4780 236° Southwest 478 550 40,000  Level FlightAware Transoceanic
Wed 10:21:00 PM 51.5070 163.3065 236° Southwest 478 550 40,000  Level FlightAware Transoceanic
Wed 10:22:00 PM 51.4352 163.1356 236° Southwest 478 550 40,000  Level FlightAware Transoceanic
Wed 10:23:00 PM 51.3630 162.9652 236° Southwest 478 550 40,000  Level FlightAware Transoceanic
Wed 10:24:00 PM 51.2907 162.7953 236° Southwest 478 550 40,000  Level FlightAware Transoceanic
Wed 10:24:11 PM 51.3167 162.8333 236° Southwest 471 542 40,000  Level Anchorage Center
Wed 10:25:00 PM 51.2181 162.6260 236° Southwest 478 550 40,000  Level FlightAware Transoceanic
Wed 10:26:00 PM 51.1452 162.4572 235° Southwest 474 545 40,000  Level FlightAware Transoceanic
Wed 10:27:00 PM 51.0721 162.2890 235° Southwest 474 545 40,000  Level FlightAware Transoceanic
Wed 10:28:00 PM 50.9988 162.1213 235° Southwest 474 545 40,000  Level FlightAware Transoceanic
Wed 10:29:00 PM 50.9252 161.9541 235° Southwest 474 545 40,000  Level FlightAware Transoceanic
Wed 10:30:00 PM 50.8702 161.8139 235° Southwest 471 542 40,000  Level FlightAware Transoceanic
Wed 10:31:00 PM 50.7950 161.6459 235° Southwest 471 542 40,000  Level FlightAware Transoceanic
Wed 10:32:00 PM 50.7195 161.4784 234° Southwest 471 542 40,000  Level FlightAware Transoceanic
Wed 10:33:00 PM 50.6437 161.3115 234° Southwest 471 542 40,000  Level FlightAware Transoceanic
Wed 10:33:46 PM 50.6000 161.2000 234° Southwest 463 533 40,000  Level Anchorage Center
Wed 10:34:00 PM 50.5677 161.1451 234° Southwest 471 542 40,000  Level FlightAware Transoceanic
Wed 10:35:00 PM 50.4915 160.9793 234° Southwest 471 542 40,000  Level FlightAware Transoceanic
Wed 10:36:00 PM 50.4151 160.8140 234° Southwest 471 542 40,000  Level FlightAware Transoceanic
Wed 10:37:00 PM 50.3384 160.6492 234° Southwest 471 542 40,000  Level FlightAware Transoceanic
Wed 10:38:00 PM 50.2615 160.4850 234° Southwest 471 542 40,000  Level FlightAware Transoceanic
Wed 10:39:00 PM 50.1843 160.3212 234° Southwest 471 542 40,000  Level FlightAware Transoceanic
Wed 10:40:00 PM 50.1218 160.1824 233° Southwest 463 533 40,000  Level FlightAware Transoceanic
Wed 10:41:00 PM 50.0413 160.0148 233° Southwest 463 533 40,000  Level FlightAware Transoceanic
Wed 10:42:00 PM 49.9605 159.8478 233° Southwest 463 533 40,000  Level FlightAware Transoceanic
Wed 10:43:00 PM 49.8794 159.6813 233° Southwest 463 533 40,000  Level FlightAware Transoceanic
Wed 10:44:00 PM 49.7982 159.5154 233° Southwest 463 533 40,000  Level FlightAware Transoceanic
Wed 10:45:00 PM 49.7167 159.3500 233° Southwest 463 533 40,000  Level FlightAware Transoceanic
Wed 10:46:00 PM 49.6445 159.2026 233° Southwest 463 533 40,000  Level FlightAware Transoceanic
Wed 10:47:00 PM 49.5721 159.0556 233° Southwest 463 533 40,000  Level FlightAware Transoceanic
Wed 10:48:00 PM 49.4995 158.9090 233° Southwest 463 533 40,000  Level FlightAware Transoceanic
Wed 10:49:00 PM 49.4267 158.7629 232° Southwest 463 533 40,000  Level FlightAware Transoceanic
Wed 10:50:00 PM 49.3538 158.6172 232° Southwest 463 533 40,000  Level FlightAware Transoceanic
Wed 10:51:00 PM 49.2806 158.4719 232° Southwest 463 533 40,000  Level FlightAware Transoceanic
Wed 10:52:00 PM 49.2073 158.3271 232° Southwest 463 533 40,000  Level FlightAware Transoceanic
Wed 10:53:00 PM 49.1338 158.1827 232° Southwest 463 533 40,000  Level FlightAware Transoceanic
Wed 10:54:00 PM 49.0601 158.0387 232° Southwest 463 533 40,000  Level FlightAware Transoceanic
Wed 10:55:00 PM 48.9863 157.8952 232° Southwest 463 533 40,000  Level FlightAware Transoceanic
Wed 10:56:00 PM 48.9123 157.7520 232° Southwest 463 533 40,000  Level FlightAware Transoceanic
Wed 10:57:00 PM 48.8381 157.6093 232° Southwest 463 533 40,000  Level FlightAware Transoceanic
Wed 10:58:00 PM 48.7637 157.4671 232° Southwest 463 533 40,000  Level FlightAware Transoceanic
Wed 10:59:00 PM 48.6891 157.3252 231° Southwest 463 533 40,000  Level FlightAware Transoceanic
Wed 11:00:00 PM 48.6144 157.1838 231° Southwest 463 533 40,000  Level FlightAware Transoceanic
Wed 11:01:00 PM 48.5395 157.0428 231° Southwest 463 533 40,000  Level FlightAware Transoceanic
Wed 11:02:00 PM 48.4644 156.9022 231° Southwest 463 533 40,000  Level FlightAware Transoceanic
Wed 11:03:00 PM 48.3891 156.7620 231° Southwest 463 533 40,000  Level FlightAware Transoceanic
Wed 11:04:00 PM 48.3137 156.6222 231° Southwest 463 533 40,000  Level FlightAware Transoceanic
Wed 11:05:00 PM 48.2381 156.4829 231° Southwest 463 533 40,000  Level FlightAware Transoceanic
Wed 11:06:00 PM 48.1624 156.3439 231° Southwest 463 533 40,000  Level FlightAware Transoceanic
Wed 11:07:00 PM 48.0865 156.2054 231° Southwest 463 533 40,000  Level FlightAware Transoceanic
Wed 11:08:00 PM 48.0104 156.0673 230° Southwest 463 533 40,000  Level FlightAware Transoceanic
Wed 11:09:00 PM 47.9341 155.9296 230° Southwest 463 533 40,000  Level FlightAware Transoceanic
Wed 11:10:00 PM 47.8577 155.7923 230° Southwest 463 533 40,000  Level FlightAware Transoceanic
Wed 11:11:00 PM 47.7811 155.6553 230° Southwest 463 533 40,000  Level FlightAware Transoceanic
Wed 11:12:00 PM 47.7044 155.5188 230° Southwest 463 533 40,000  Level FlightAware Transoceanic
Wed 11:13:00 PM 47.6275 155.3828 230° Southwest 463 533 40,000  Level FlightAware Transoceanic
Wed 11:14:00 PM 47.5504 155.2471 230° Southwest 463 533 40,000  Level FlightAware Transoceanic
Wed 11:15:00 PM 47.4732 155.1117 230° Southwest 463 533 40,000  Level FlightAware Transoceanic
Wed 11:16:00 PM 47.3958 154.9768 230° Southwest 463 533 40,000  Level FlightAware Transoceanic
Wed 11:17:00 PM 47.3183 154.8423 230° Southwest 463 533 40,000  Level FlightAware Transoceanic
Wed 11:18:00 PM 47.2406 154.7082 229° Southwest 463 533 40,000  Level FlightAware Transoceanic
Wed 11:19:00 PM 47.1627 154.5745 229° Southwest 463 533 40,000  Level FlightAware Transoceanic
Wed 11:20:00 PM 47.0847 154.4412 229° Southwest 463 533 40,000  Level FlightAware Transoceanic
Wed 11:21:00 PM 47.0066 154.3082 229° Southwest 463 533 40,000  Level FlightAware Transoceanic
Wed 11:22:00 PM 46.9283 154.1757 229° Southwest 463 533 40,000  Level FlightAware Transoceanic
Wed 11:23:00 PM 46.8498 154.0435 229° Southwest 463 533 40,000  Level FlightAware Transoceanic
Wed 11:24:00 PM 46.7712 153.9117 229° Southwest 463 533 40,000  Level FlightAware Transoceanic
Wed 11:25:00 PM 46.6924 153.7803 229° Southwest 463 533 40,000  Level FlightAware Transoceanic
Wed 11:26:00 PM 46.6135 153.6494 229° Southwest 463 533 40,000  Level FlightAware Transoceanic
Wed 11:27:00 PM 46.5344 153.5187 229° Southwest 463 533 40,000  Level FlightAware Transoceanic
Wed 11:28:00 PM 46.4552 153.3885 228° Southwest 463 533 40,000  Level FlightAware Transoceanic
Wed 11:29:00 PM 46.3758 153.2586 228° Southwest 463 533 40,000  Level FlightAware Transoceanic
Wed 11:30:00 PM 46.2963 153.1291 228° Southwest 463 533 40,000  Level FlightAware Transoceanic
Wed 11:31:00 PM 46.2135 152.9948 228° Southwest  Level FlightAware Approximate
Wed 11:32:00 PM 46.2102 152.9897 228° Southwest  Level FlightAware Approximate
Wed 11:33:00 PM 46.1267 152.8565 228° Southwest  Level FlightAware Approximate
Wed 11:34:00 PM 46.0430 152.7237 228° Southwest  Level FlightAware Approximate
Wed 11:35:00 PM 45.9591 152.5912 228° Southwest  Level FlightAware Approximate
Wed 11:36:00 PM 45.8751 152.4592 228° Southwest  Level FlightAware Approximate
Wed 11:37:00 PM 45.7910 152.3276 228° Southwest  Level FlightAware Approximate
Wed 11:38:00 PM 45.7067 152.1964 227° Southwest  Level FlightAware Approximate
Wed 11:39:00 PM 45.6222 152.0656 227° Southwest  Level FlightAware Approximate
Wed 11:40:00 PM 45.5376 151.9352 227° Southwest  Level FlightAware Approximate
Wed 11:41:00 PM 45.4529 151.8051 227° Southwest  Level FlightAware Approximate
Wed 11:42:00 PM 45.3680 151.6755 227° Southwest  Level FlightAware Approximate
Wed 11:43:00 PM 45.2830 151.5463 227° Southwest  Level FlightAware Approximate
Wed 11:44:00 PM 45.1978 151.4174 227° Southwest  Level FlightAware Approximate
Wed 11:45:00 PM 45.1124 151.2889 227° Southwest  Level FlightAware Approximate
Wed 11:46:00 PM 45.0270 151.1608 227° Southwest  Level FlightAware Approximate
Wed 11:47:00 PM 44.9413 151.0331 227° Southwest  Level FlightAware Approximate
Wed 11:48:00 PM 44.8556 150.9058 226° Southwest  Level FlightAware Approximate
Wed 11:49:00 PM 44.7697 150.7788 226° Southwest  Level FlightAware Approximate
Wed 11:50:00 PM 44.6836 150.6523 226° Southwest  Level FlightAware Approximate
Wed 11:51:00 PM 44.5975 150.5261 226° Southwest  Level FlightAware Approximate
Wed 11:52:00 PM 44.5111 150.4003 226° Southwest  Level FlightAware Approximate
Wed 11:53:00 PM 44.4247 150.2748 226° Southwest  Level FlightAware Approximate
Wed 11:54:00 PM 44.3381 150.1497 226° Southwest  Level FlightAware Approximate
Wed 11:55:00 PM 44.2514 150.0250 226° Southwest  Level FlightAware Approximate
Wed 11:56:00 PM 44.1645 149.9007 226° Southwest  Level FlightAware Approximate
Wed 11:57:00 PM 44.0775 149.7767 226° Southwest  Level FlightAware Approximate
Wed 11:58:00 PM 43.9904 149.6531 226° Southwest  Level FlightAware Approximate
Wed 11:59:00 PM 43.9037 149.5307 226° Southwest  Level FlightAware Approximate
Thu 12:00:00 AM 43.8170 149.4087 225° Southwest  Level FlightAware Approximate
Thu 12:01:00 AM 43.7301 149.2871 225° Southwest  Level FlightAware Approximate
Thu 12:02:00 AM 43.6431 149.1658 225° Southwest  Level FlightAware Approximate
Thu 12:03:00 AM 43.5559 149.0448 225° Southwest  Level FlightAware Approximate
Thu 12:04:00 AM 43.4686 148.9242 225° Southwest  Level FlightAware Approximate
Thu 12:05:00 AM 43.3812 148.8040 225° Southwest  Level FlightAware Approximate
Thu 12:06:00 AM 43.2937 148.6841 225° Southwest  Level FlightAware Approximate
Thu 12:06:28 AM 43.4660 148.9200 225° Southwest 394 453 40,000  Level FlightAware ADS-B
Thu 12:07:00 AM 43.2061 148.5645 225° Southwest  Level FlightAware Approximate
Thu 12:07:18 AM 43.3980 148.8270 225° Southwest 393 452 40,000  Level FlightAware ADS-B
Thu 12:08:09 AM 43.3340 148.7390 225° Southwest 391 450 40,000  Level FlightAware ADS-B
Thu 12:08:58 AM 43.2710 148.6530 225° Southwest 391 450 40,000  Level FlightAware ADS-B
Thu 12:09:39 AM 43.2200 148.5830 225° Southwest 391 450 40,000  Level FlightAware ADS-B
Thu 12:10:38 AM 43.1420 148.4760 225° Southwest 390 449 40,000  Level FlightAware ADS-B
Thu 12:11:08 AM 43.1040 148.4250 224° Southwest 390 449 40,000  Level FlightAware ADS-B
Thu 12:12:23 AM 43.0070 148.2950 224° Southwest 388 447 40,000  Level FlightAware ADS-B
Thu 12:13:18 AM 42.9370 148.2010 225° Southwest 388 447 40,000  Level FlightAware ADS-B
Thu 12:14:03 AM 42.8800 148.1240 225° Southwest 389 448 40,000  Level FlightAware ADS-B
Thu 12:15:08 AM 42.7950 148.0090 225° Southwest 386 444 40,000  Level FlightAware ADS-B
Thu 12:15:43 AM 42.7520 147.9520 224° Southwest 386 444 40,000  Level FlightAware ADS-B
Thu 12:15:58 AM 42.7310 147.9240 224° Southwest 385 443 40,000  Level FlightAware ADS-B
Thu 12:17:08 AM 42.6410 147.8050 224° Southwest 386 444 40,000  Level FlightAware ADS-B
Thu 12:18:03 AM 42.5700 147.7110 224° Southwest 386 444 40,000  Level FlightAware ADS-B
Thu 12:18:53 AM 42.5050 147.6250 224° Southwest 386 444 40,000  Level FlightAware ADS-B
Thu 12:19:53 AM 42.4270 147.5230 224° Southwest 385 443 40,000  Level FlightAware ADS-B
Thu 12:20:58 AM 42.3430 147.4120 224° Southwest 383 441 40,000  Level FlightAware ADS-B
Thu 12:21:33 AM 42.2980 147.3540 224° Southwest 387 445 40,000  Level FlightAware ADS-B
Thu 12:22:03 AM 42.2590 147.3030 224° Southwest 386 444 40,000  Level FlightAware ADS-B
Thu 12:22:58 AM 42.1880 147.2110 224° Southwest 382 440 40,000  Level FlightAware ADS-B
Thu 12:23:53 AM 42.1170 147.1190 224° Southwest 381 438 40,000  Level FlightAware ADS-B
Thu 12:24:23 AM 42.0790 147.0690 224° Southwest 381 438 40,000  Level FlightAware ADS-B
Thu 12:24:58 AM 42.0350 147.0120 224° Southwest 381 438 40,000  Level FlightAware ADS-B
Thu 12:26:08 AM 41.9430 146.8930 224° Southwest 382 440 40,000  Level FlightAware ADS-B
Thu 12:27:13 AM 41.8590 146.7860 224° Southwest 382 440 40,000  Level FlightAware ADS-B
Thu 12:27:48 AM 41.8130 146.7270 224° Southwest 381 438 40,000  Level FlightAware ADS-B
Thu 12:29:03 AM 41.7160 146.6030 224° Southwest 383 441 40,000  Level FlightAware ADS-B
Thu 12:29:58 AM 41.6450 146.5120 224° Southwest 382 440 40,000  Level FlightAware ADS-B
Thu 12:30:58 AM 41.5670 146.4140 223° Southwest 384 442 40,000  Level FlightAware ADS-B
Thu 12:31:33 AM 41.5210 146.3560 223° Southwest 384 442 40,000  Level FlightAware ADS-B
Thu 12:32:43 AM 41.4300 146.2400 224° Southwest 379 436 40,000  Level FlightAware ADS-B
Thu 12:33:28 AM 41.3710 146.1660 223° Southwest 379 436 40,000  Level FlightAware ADS-B
Thu 12:34:03 AM 41.3260 146.1100 223° Southwest 381 438 40,000  Level FlightAware ADS-B
Thu 12:34:33 AM 41.2870 146.0600 224° Southwest 383 441 40,000  Level FlightAware ADS-B
Thu 12:35:33 AM 41.2080 145.9630 223° Southwest 384 442 40,000  Level FlightAware ADS-B
Thu 12:36:03 AM 41.1690 145.9140 223° Southwest 384 442 40,000  Level FlightAware ADS-B
Thu 12:36:38 AM 41.1250 145.8590 223° Southwest 384 442 40,000  Level FlightAware ADS-B
Thu 12:37:13 AM 41.0770 145.7990 223° Southwest 384 442 40,000  Level FlightAware ADS-B
Thu 12:38:08 AM 41.0050 145.7100 223° Southwest 384 442 40,000  Level FlightAware ADS-B
Thu 12:39:03 AM 40.9320 145.6200 223° Southwest 385 443 40,000  Level FlightAware ADS-B
Thu 12:39:28 AM 40.9000 145.5810 223° Southwest 385 443 40,000  Level FlightAware ADS-B
Thu 12:40:33 AM 40.8130 145.4740 223° Southwest 385 443 40,000  Level FlightAware ADS-B
Thu 12:40:58 AM 40.7800 145.4340 223° Southwest 392 451 40,000  Level FlightAware ADS-B
Thu 12:42:03 AM 40.6960 145.3310 223° Southwest 393 452 40,000  Level FlightAware ADS-B
Thu 12:42:40 AM 40.6490 145.2740 223° Southwest 393 452 40,000  Level FlightAware ADS-B
Thu 12:43:13 AM 40.6030 145.2180 223° Southwest 393 452 40,000  Level FlightAware ADS-B
Thu 12:44:04 AM 40.5360 145.1370 223° Southwest 393 452 40,000  Level FlightAware ADS-B
Thu 12:45:20 AM 40.4360 145.0170 222° Southwest 393 452 40,000  Level FlightAware ADS-B
Thu 12:46:23 AM 40.3460 144.9070 223° Southwest 395 455 40,000  Level FlightAware ADS-B
Thu 12:47:23 AM 40.2670 144.8120 223° Southwest 396 456 40,000  Level FlightAware ADS-B
Thu 12:47:48 AM 40.2350 144.7740 222° Southwest 397 457 40,000  Level FlightAware ADS-B
Thu 12:48:33 AM 40.1790 144.7080 222° Southwest 397 457 40,000  Level FlightAware ADS-B
Thu 12:49:09 AM 40.1370 144.6590 222° Southwest 397 457 40,000  Level FlightAware ADS-B
Thu 12:49:45 AM 40.0960 144.6100 222° Southwest 397 457 40,000  Level FlightAware ADS-B
Thu 12:50:33 AM 40.0400 144.5440 222° Southwest 397 457 40,000  Level FlightAware ADS-B
Thu 12:51:09 AM 39.9980 144.4950 222° Southwest 397 457 40,000  Level FlightAware ADS-B
Thu 12:51:58 AM 39.9410 144.4290 222° Southwest 397 457 40,000  Level FlightAware ADS-B
Thu 12:52:58 AM 39.8720 144.3470 222° Southwest 397 457 40,000  Level FlightAware ADS-B
Thu 12:53:22 AM 39.8440 144.3140 222° Southwest 397 457 40,000  Level FlightAware ADS-B
Thu 12:53:58 AM 39.8020 144.2650 222° Southwest 397 457 40,000  Level FlightAware ADS-B
Thu 12:54:34 AM 39.7600 144.2160 222° Southwest 397 457 40,000  Level FlightAware ADS-B
Thu 12:55:10 AM 39.7190 144.1670 223° Southwest 397 457 40,000  Level FlightAware ADS-B
Thu 12:55:58 AM 39.6630 144.1020 222° Southwest 397 457 40,000  Level FlightAware ADS-B
Thu 12:56:34 AM 39.6210 144.0530 222° Southwest 397 457 40,000  Level FlightAware ADS-B
Thu 12:57:10 AM 39.5790 144.0050 221° Southwest 397 457 40,000  Level FlightAware ADS-B
Thu 12:57:46 AM 39.5380 143.9560 223° Southwest 397 457 40,000  Level FlightAware ADS-B
Thu 12:59:09 AM 39.2960 143.6970 220° Southwest 417 480 40,000  Level FlightAware ADS-B
Thu 01:00:14 AM 39.1920 143.6530 198° South 423 487 40,000  Level FlightAware ADS-B
Thu 01:00:50 AM 39.1350 143.6290 198° South 423 487 40,000  Level FlightAware ADS-B
Thu 01:01:15 AM 39.0960 143.6120 199° South 423 487 40,000  Level FlightAware ADS-B
Thu 01:01:44 AM 39.0160 143.5710 202° Southwest 450 518 40,000  Level FlightAware ADS-B
Thu 01:02:39 AM 38.9190 143.5280 199° South 40,000  Level FlightAware ADS-B
Thu 01:05:00 AM 38.6942 143.2922 219° Southwest  Level Estimated
Thu 01:05:41 AM 38.5790 143.3640 219° Southwest 432 497 40,000  Level FlightAware ADS-B
Thu 01:06:00 AM 38.5984 143.1923 219° Southwest  Level Estimated
Thu 01:06:46 AM 38.4610 143.3060 201° Southwest 419 482 40,000  Level FlightAware ADS-B
Thu 01:07:31 AM 38.3810 143.2670 201° Southwest 419 482 40,000  Level FlightAware ADS-B
Thu 01:08:01 AM 38.3300 143.2420 201° Southwest 419 482 40,000  Level FlightAware ADS-B
Thu 01:08:33 AM 38.2830 143.2180 202° Southwest 420 483 40,000  Level FlightAware ADS-B
Thu 01:09:10 AM 38.2250 143.1910 200° South 420 483 40,000  Level FlightAware ADS-B
Thu 01:09:49 AM 38.1320 143.1450 201° Southwest 412 474 40,000  Level FlightAware ADS-B
Thu 01:10:14 AM 38.0860 143.1220 201° Southwest 411 473 40,000  Level FlightAware ADS-B
Thu 01:11:14 AM 37.9840 143.0730 201° Southwest 412 474 40,000  Level FlightAware ADS-B
Thu 01:11:39 AM 37.9330 143.0480 201° Southwest 413 475 40,000  Level FlightAware ADS-B
Thu 01:12:24 AM 37.8550 143.0100 201° Southwest 413 475 40,000  Level FlightAware ADS-B
Thu 01:13:19 AM 37.7510 142.9600 201° Southwest 416 479 40,000  Level FlightAware ADS-B
Thu 01:13:54 AM 37.6860 142.9280 201° Southwest 416 479 40,000  Level FlightAware ADS-B
Thu 01:14:21 AM 37.6400 142.9060 201° Southwest 417 480 40,000  Level FlightAware ADS-B
Thu 01:14:57 AM 37.5730 142.8740 201° Southwest 417 480 40,000  Level FlightAware ADS-B
Thu 01:15:36 AM 37.4980 142.8380 201° Southwest 418 481 40,000  Level FlightAware ADS-B
Thu 01:16:12 AM 37.4390 142.8100 201° Southwest 427 491 40,000  Level FlightAware ADS-B
Thu 01:16:49 AM 37.3610 142.7720 201° Southwest 418 481 40,000  Level FlightAware ADS-B
Thu 01:17:16 AM 37.3170 142.7520 200° South 418 481 40,000  Level FlightAware ADS-B
Thu 01:17:54 AM 37.2450 142.7170 201° Southwest 418 481 40,000  Level FlightAware ADS-B
Thu 01:18:19 AM 37.1970 142.6930 202° Southwest 424 488 40,000  Level FlightAware ADS-B
Thu 01:18:59 AM 37.1270 142.6520 205° Southwest 424 488 40,000  Level FlightAware ADS-B
Thu 01:20:04 AM 37.0110 142.5850 205° Southwest 422 486 40,000  Level FlightAware ADS-B
Thu 01:20:34 AM 36.9580 142.5540 205° Southwest 422 486 40,000  Level FlightAware ADS-B
Thu 01:20:59 AM 36.9180 142.5310 205° Southwest 422 486 40,000 -109 Level FlightAware ADS-B
Thu 01:21:29 AM 36.8670 142.5020 204° Southwest 423 487 39,900 -1,100 Descending FlightAware ADS-B
Thu 01:21:59 AM 36.8090 142.4680 205° Southwest 424 488 38,900 -2,182 Descending FlightAware ADS-B
Thu 01:22:46 AM 36.7220 142.4180 205° Southwest 450 518 37,100 -2,158 Descending FlightAware ADS-B
Thu 01:23:53 AM 36.6040 142.3510 205° Southwest 419 482 34,800 -1,603 Descending FlightAware ADS-B
Thu 01:24:57 AM 36.4900 142.2850 205° Southwest 441 507 33,600 -1,983 Descending FlightAware ADS-B
Thu 01:25:51 AM 36.3850 142.2260 204° Southwest 421 484 30,900 -2,589 Descending FlightAware ADS-B
Thu 01:26:32 AM 36.3090 142.1830 205° Southwest 410 472 29,500 -1,948 Descending FlightAware ADS-B
Thu 01:27:08 AM 36.2480 142.1480 205° Southwest 404 465 28,400 -1,826 Descending FlightAware ADS-B
Thu 01:27:41 AM 36.1960 142.1180 205° Southwest 399 459 27,400 -1,816 Descending FlightAware ADS-B
Thu 01:28:24 AM 36.1270 142.0790 205° Southwest 380 437 26,100 -1,667 Descending FlightAware ADS-B
Thu 01:28:53 AM 36.0870 142.0570 204° Southwest 383 441 25,400 -1,680 Descending FlightAware ADS-B
Thu 01:29:14 AM 36.0480 142.0340 205° Southwest 370 426 24,700 -1,962 Descending FlightAware ADS-B
Thu 01:29:45 AM 35.9930 142.0030 205° Southwest 374 430 23,700 -1,791 Descending FlightAware ADS-B
Thu 01:30:21 AM 35.9410 141.9740 204° Southwest 370 426 22,700 -1,500 Descending FlightAware ADS-B
Thu 01:30:57 AM 35.8840 141.9420 204° Southwest 359 413 21,900 -1,333 Descending FlightAware ADS-B
Thu 01:31:33 AM 35.8330 141.9140 204° Southwest 317 365 21,100 -1,642 Descending FlightAware ADS-B
Thu 01:32:43 AM 35.7500 141.8670 205° Southwest 286 329 19,000 -1,706 Descending FlightAware ADS-B
Thu 01:33:15 AM 35.7140 141.8470 204° Southwest 281 323 18,200 -1,389 Descending FlightAware ADS-B
Thu 01:34:18 AM 35.6380 141.8050 204° Southwest 272 313 16,800 -1,234 Descending FlightAware ADS-B
Thu 01:35:02 AM 35.5900 141.7660 213° Southwest 267 307 16,000 -696 Descending FlightAware ADS-B
Thu 01:35:27 AM 35.5810 141.7280 254° West 272 313 16,000  Level FlightAware ADS-B
Thu 01:36:19 AM 35.5760 141.6490 266° West 273 314 16,000 -477 Level FlightAware ADS-B
Thu 01:36:55 AM 35.5730 141.5960 266° West 269 310 15,300 -1,227 Descending FlightAware ADS-B
Thu 01:37:47 AM 35.5870 141.5240 283° West 282 325 14,200 -1,151 Descending FlightAware ADS-B
Thu 01:38:08 AM 35.6120 141.5080 333° Northwest 283 326 13,900 -692 Descending FlightAware ADS-B
Thu 01:38:39 AM 35.6540 141.4880 339° North 282 325 13,600 -706 Descending FlightAware ADS-B
Thu 01:39:16 AM 35.6840 141.4480 313° West 268 308 13,100 -769 Descending FlightAware ADS-B
Thu 01:39:57 AM 35.7040 141.3830 291° West 266 306 12,600 -659 Descending FlightAware ADS-B
Thu 01:40:38 AM 35.7190 141.3280 289° West 267 307 12,200 -623 Descending FlightAware ADS-B
Thu 01:41:14 AM 35.7340 141.2740 289° West 264 304 11,800 -658 Descending FlightAware ADS-B
Thu 01:41:51 AM 35.7680 141.2380 319° Northwest 261 300 11,400 -484 Descending FlightAware ADS-B
Thu 01:42:16 AM 35.7990 141.2290 347° North 281 323 11,300 -353 Descending FlightAware ADS-B
Thu 01:42:42 AM 35.8310 141.2180 344° North 269 310 11,100 -646 Descending FlightAware ADS-B
Thu 01:43:21 AM 35.8520 141.1670 297° West 255 293 10,600 -733 Descending FlightAware ADS-B
Thu 01:44:12 AM 35.8530 141.0910 271° West 255 293 10,000 -733 Descending FlightAware ADS-B
Thu 01:44:51 AM 35.8440 141.0360 259° West 250 288 9,500 -880 Descending FlightAware ADS-B
Thu 01:45:27 AM 35.8120 141.0030 220° Southwest 255 293 8,900 -1,014 Descending FlightAware ADS-B
Thu 01:46:02 AM 35.7800 140.9710 219° Southwest 251 289 8,300 -1,015 Descending FlightAware ADS-B
Thu 01:46:32 AM 35.7530 140.9440 219° Southwest 251 289 7,800 -1,000 Descending FlightAware ADS-B
Thu 01:47:08 AM 35.7200 140.9110 219° Southwest 251 289 7,200 -1,014 Descending FlightAware ADS-B
Thu 01:47:43 AM 35.6860 140.8770 219° Southwest 251 289 6,600 -1,050 Descending FlightAware ADS-B
Thu 01:48:28 AM 35.6470 140.8380 219° Southwest 253 291 5,800 -1,043 Descending FlightAware ADS-B
Thu 01:48:52 AM 35.6220 140.8130 219° Southwest 252 290 5,400 -1,019 Descending FlightAware ADS-B
Thu 01:49:21 AM 35.5950 140.7860 219° Southwest 252 290 4,900 -984 Descending FlightAware ADS-B
Thu 01:49:53 AM 35.5680 140.7580 220° Southwest 249 287 4,400 -696 Descending FlightAware ADS-B
Thu 01:50:30 AM 35.5340 140.7280 216° Southwest 230 265 4,100 -441 Descending FlightAware ADS-B
Thu 01:51:01 AM 35.5030 140.7150 199° South 210 242 3,900 -148 Descending FlightAware ADS-B
Thu 01:51:51 AM 35.4730 140.6800 224° Southwest 188 216 3,900  Level FlightAware ADS-B
Thu 01:52:21 AM 35.4630 140.6450 251° West 196 226 3,900  Level FlightAware ADS-B
Thu 01:52:51 AM 35.4730 140.6210 297° West 200 230 3,900  Level FlightAware ADS-B
Thu 01:53:29 AM 35.4930 140.5780 300° West 204 235 3,900  Level FlightAware ADS-B
Thu 01:54:10 AM 35.5230 140.5480 321° Northwest 203 234 3,900  Level FlightAware ADS-B
Thu 01:54:53 AM 35.5550 140.5260 331° Northwest 191 220 3,900 -162 Level FlightAware ADS-B
Thu 01:55:24 AM 35.5830 140.5060 330° Northwest 191 220 3,700 -712 Descending FlightAware ADS-B
Thu 01:55:52 AM 35.6020 140.4930 331° Northwest 190 219 3,200 -1,135 Descending FlightAware ADS-B
Thu 01:56:38 AM 35.6400 140.4650 329° Northwest 180 207 2,300 -1,047 Descending FlightAware ADS-B
Thu 01:57:18 AM 35.6690 140.4450 331° Northwest 173 199 1,700 -868 Descending FlightAware ADS-B
Thu 01:57:54 AM 35.6900 140.4290 328° Northwest 143 165 1,200 -806 Descending FlightAware ADS-B
Thu 01:58:25 AM 35.7070 140.4170 330° Northwest 136 157 800 -711 Descending FlightAware ADS-B
Thu 01:59:10 AM 35.7320 140.3990 330° Northwest 129 148 300 -689 Descending FlightAware ADS-B
Thu 01:59:26 AM 35.7400 140.3930 329° Northwest 130 150 100 -286 Descending FlightAware ADS-B
Thu 01:59:52 AM 35.7510 140.3850 329° Northwest 130 150 100  Level FlightAware ADS-B

Login

Don't have an account? Register now (free) for customized features, flight alerts, and more!